Observation data for Sierra Blanca on 01/19/2019      Previous  Date  Next       Current Mesonet Observations  Soil Data  Daily Summary Page  Observations in Plain Language
KSB1 190600Z 34011G17KT 08/M06 A3023 RMK A01 T00761063  RH  037%=      5-min Rain = 0
KSB1 190601Z 34013KT 08/M06 A3023 RMK A01 T00751063  RH  037%=      5-min Rain = 0
KSB1 190602Z 33010KT 08/M06 A3023 RMK A01 T00751063  RH  037%=      5-min Rain = 0
KSB1 190603Z 33008KT 07/M06 A3023 RMK A01 T00741063  RH  037%=      5-min Rain = 0
KSB1 190604Z 33009KT 07/M06 A3023 RMK A01 T00731063  RH  037%=      5-min Rain = 0
KSB1 190605Z 34011KT 07/M06 A3023 RMK A01 T00731062  RH  038%=      5-min Rain = 0
KSB1 190606Z 34011KT 07/M06 A3023 RMK A01 T00731062  RH  038%=      5-min Rain = 0
KSB1 190607Z 34008KT 07/M06 A3023 RMK A01 T00731062  RH  038%=      5-min Rain = 0
KSB1 190608Z 34007KT 07/M06 A3023 RMK A01 T00721062  RH  038%=      5-min Rain = 0
KSB1 190609Z 33007KT 07/M06 A3023 RMK A01 T00711061  RH  038%=      5-min Rain = 0
KSB1 190610Z 34009KT 07/M06 A3023 RMK A01 T00701061  RH  039%=      5-min Rain = 0
KSB1 190611Z 35008KT 07/M06 A3023 RMK A01 T00691061  RH  039%=      5-min Rain = 0
KSB1 190612Z 35008KT 07/M06 A3023 RMK A01 T00691062  RH  039%=      5-min Rain = 0
KSB1 190613Z 34010G15KT 07/M06 A3023 RMK A01 T00691062  RH  039%=      5-min Rain = 0
KSB1 190614Z 34012KT 07/M06 A3023 RMK A01 T00691062  RH  039%=      5-min Rain = 0
KSB1 190615Z 33012KT 07/M06 A3023 RMK A01 T00701062  RH  038%=      5-min Rain = 0
KSB1 190616Z 33010KT 07/M06 A3023 RMK A01 T00701063  RH  038%=      5-min Rain = 0
KSB1 190617Z 33008KT 07/M06 A3023 RMK A01 T00701063  RH  038%=      5-min Rain = 0
KSB1 190618Z 31008KT 07/M06 A3024 RMK A01 T00701062  RH  039%=      5-min Rain = 0
KSB1 190619Z 31008KT 07/M06 A3024 RMK A01 T00691062  RH  039%=      5-min Rain = 0
KSB1 190620Z 33009KT 07/M06 A3024 RMK A01 T00691062  RH  039%=      5-min Rain = 0
KSB1 190621Z 32009KT 07/M06 A3023 RMK A01 T00681062  RH  039%=      5-min Rain = 0
KSB1 190622Z 31008KT 07/M06 A3023 RMK A01 T00681062  RH  039%=      5-min Rain = 0
KSB1 190623Z 30006KT 07/M06 A3023 RMK A01 T00681062  RH  039%=      5-min Rain = 0
KSB1 190624Z 29007KT 07/M06 A3023 RMK A01 T00671062  RH  039%=      5-min Rain = 0
KSB1 190625Z 29009KT 07/M06 A3023 RMK A01 T00671063  RH  039%=      5-min Rain = 0
KSB1 190626Z 27009KT 07/M06 A3023 RMK A01 T00671063  RH  039%=      5-min Rain = 0
KSB1 190627Z 28010KT 07/M06 A3022 RMK A01 T00671062  RH  039%=      5-min Rain = 0
KSB1 190628Z 27009KT 07/M06 A3022 RMK A01 T00661062  RH  039%=      5-min Rain = 0
KSB1 190629Z 28008KT 07/M06 A3022 RMK A01 T00651061  RH  040%=      5-min Rain = 0
KSB1 190630Z 30012KT 06/M06 A3023 RMK A01 T00641062  RH  040%=      5-min Rain = 0
KSB1 190631Z 29008KT 07/M06 A3023 RMK A01 T00661063  RH  039%=      5-min Rain = 0
KSB1 190632Z 29008KT 07/M06 A3024 RMK A01 T00671062  RH  039%=      5-min Rain = 0
KSB1 190633Z 28007KT 07/M06 A3024 RMK A01 T00661061  RH  040%=      5-min Rain = 0
KSB1 190634Z 29010KT 07/M06 A3024 RMK A01 T00651062  RH  040%=      5-min Rain = 0
KSB1 190635Z 30008KT 07/M06 A3024 RMK A01 T00651063  RH  039%=      5-min Rain = 0
KSB1 190636Z 31009KT 07/M06 A3024 RMK A01 T00661064  RH  039%=      5-min Rain = 0
KSB1 190637Z 31006KT 07/M06 A3024 RMK A01 T00661064  RH  039%=      5-min Rain = 0
KSB1 190638Z 30008KT 07/M06 A3024 RMK A01 T00661064  RH  039%=      5-min Rain = 0
KSB1 190639Z 30007KT 07/M06 A3024 RMK A01 T00651063  RH  039%=      5-min Rain = 0
KSB1 190640Z 29009KT 07/M06 A3024 RMK A01 T00651063  RH  039%=      5-min Rain = 0
KSB1 190641Z 30007KT 07/M06 A3023 RMK A01 T00651064  RH  039%=      5-min Rain = 0
KSB1 190642Z 30008KT 07/M07 A3023 RMK A01 T00651065  RH  039%=      5-min Rain = 0
KSB1 190643Z 30008KT 07/M07 A3023 RMK A01 T00651066  RH  039%=      5-min Rain = 0
KSB1 190644Z 30011KT 07/M07 A3023 RMK A01 T00651068  RH  038%=      5-min Rain = 0
KSB1 190645Z 30013KT 07/M07 A3023 RMK A01 T00651069  RH  038%=      5-min Rain = 0
KSB1 190646Z 30011KT 07/M07 A3023 RMK A01 T00651069  RH  037%=      5-min Rain = 0
KSB1 190647Z 31009KT 07/M07 A3023 RMK A01 T00651070  RH  037%=      5-min Rain = 0
KSB1 190648Z 31010G15KT 07/M07 A3023 RMK A01 T00651070  RH  037%=      5-min Rain = 0
KSB1 190649Z 30011KT 07/M07 A3023 RMK A01 T00651072  RH  037%=      5-min Rain = 0
KSB1 190650Z 29011KT 07/M07 A3023 RMK A01 T00651073  RH  037%=      5-min Rain = 0
KSB1 190651Z 30013KT 07/M07 A3023 RMK A01 T00651073  RH  036%=      5-min Rain = 0
KSB1 190652Z 30012KT 07/M08 A3023 RMK A01 T00651075  RH  036%=      5-min Rain = 0
KSB1 190653Z 30012KT 07/M08 A3023 RMK A01 T00651076  RH  036%=      5-min Rain = 0
KSB1 190654Z 31013KT 07/M08 A3023 RMK A01 T00651079  RH  035%=      5-min Rain = 0
KSB1 190655Z 32012KT 07/M08 A3023 RMK A01 T00661082  RH  034%=      5-min Rain = 0
KSB1 190656Z 32011G16KT 07/M08 A3023 RMK A01 T00671084  RH  033%=      5-min Rain = 0
KSB1 190657Z 32012KT 07/M09 A3023 RMK A01 T00671087  RH  032%=      5-min Rain = 0
KSB1 190658Z 32011KT 07/M09 A3023 RMK A01 T00681091  RH  031%=      5-min Rain = 0
KSB1 190659Z 31013KT 07/M09 A3023 RMK A01 T00681093  RH  031%=      5-min Rain = 0
KSB1 190700Z 31015KT 07/M10 A3022 RMK A01 T00691097  RH  030%=      5-min Rain = 0
KSB1 190701Z 31012KT 07/M10 A3022 RMK A01 T00711099  RH  029%=      5-min Rain = 0
KSB1 190702Z 31013G18KT 07/M10 A3022 RMK A01 T00711101  RH  028%=      5-min Rain = 0
KSB1 190703Z 31013KT 07/M10 A3022 RMK A01 T00721103  RH  028%=      5-min Rain = 0
KSB1 190704Z 31010KT 07/M10 A3022 RMK A01 T00721104  RH  027%=      5-min Rain = 0
KSB1 190705Z 30011KT 07/M10 A3022 RMK A01 T00731104  RH  027%=      5-min Rain = 0
KSB1 190706Z 30012KT 07/M11 A3022 RMK A01 T00721106  RH  027%=      5-min Rain = 0
KSB1 190707Z 31011KT 07/M11 A3022 RMK A01 T00721108  RH  026%=      5-min Rain = 0
KSB1 190708Z 31011KT 07/M11 A3022 RMK A01 T00721109  RH  026%=      5-min Rain = 0
KSB1 190709Z 31011KT 07/M11 A3022 RMK A01 T00721111  RH  026%=      5-min Rain = 0
KSB1 190710Z 32010KT 07/M11 A3022 RMK A01 T00721113  RH  025%=      5-min Rain = 0
KSB1 190711Z 33012KT 07/M11 A3022 RMK A01 T00731113  RH  025%=      5-min Rain = 0
KSB1 190712Z 33012KT 07/M11 A3023 RMK A01 T00731113  RH  025%=      5-min Rain = 0
KSB1 190713Z 32009KT 07/M11 A3023 RMK A01 T00731113  RH  025%=      5-min Rain = 0
KSB1 190714Z 33008G13KT 07/M11 A3023 RMK A01 T00731113  RH  025%=      5-min Rain = 0
KSB1 190715Z 32011KT 07/M11 A3023 RMK A01 T00721114  RH  025%=      5-min Rain = 0
KSB1 190716Z 32011KT 07/M12 A3023 RMK A01 T00721116  RH  025%=      5-min Rain = 0
KSB1 190717Z 32011KT 07/M12 A3023 RMK A01 T00721117  RH  025%=      5-min Rain = 0
KSB1 190718Z 33011KT 07/M12 A3023 RMK A01 T00731118  RH  024%=      5-min Rain = 0
KSB1 190719Z 32010KT 07/M12 A3024 RMK A01 T00731118  RH  024%=      5-min Rain = 0
KSB1 190720Z 34011KT 07/M12 A3024 RMK A01 T00731118  RH  024%=      5-min Rain = 0
KSB1 190721Z 33009KT 07/M12 A3024 RMK A01 T00731118  RH  024%=      5-min Rain = 0
KSB1 190722Z 33009KT 07/M12 A3024 RMK A01 T00731118  RH  024%=      5-min Rain = 0
KSB1 190723Z 34009KT 07/M12 A3024 RMK A01 T00731116  RH  025%=      5-min Rain = 0
KSB1 190724Z 33011KT 07/M12 A3024 RMK A01 T00721115  RH  025%=      5-min Rain = 0
KSB1 190725Z 34011KT 07/M12 A3024 RMK A01 T00721115  RH  025%=      5-min Rain = 0
KSB1 190726Z 33010KT 07/M11 A3024 RMK A01 T00721114  RH  025%=      5-min Rain = 0
KSB1 190727Z 34011G17KT 07/M11 A3024 RMK A01 T00721112  RH  026%=      5-min Rain = 0
KSB1 190728Z 34015KT 07/M11 A3024 RMK A01 T00721112  RH  026%=      5-min Rain = 0
KSB1 190729Z 34014KT 07/M11 A3024 RMK A01 T00731111  RH  026%=      5-min Rain = 0
KSB1 190730Z 34011KT 07/M11 A3024 RMK A01 T00721112  RH  026%=      5-min Rain = 0
KSB1 190731Z 33013KT 07/M11 A3024 RMK A01 T00711110  RH  026%=      5-min Rain = 0
KSB1 190732Z 33014KT 07/M11 A3024 RMK A01 T00701109  RH  027%=      5-min Rain = 0
KSB1 190733Z 33012KT 07/M11 A3024 RMK A01 T00691109  RH  027%=      5-min Rain = 0
KSB1 190734Z 33011KT 07/M11 A3024 RMK A01 T00691109  RH  027%=      5-min Rain = 0
KSB1 190735Z 33015KT 07/M11 A3024 RMK A01 T00691109  RH  027%=      5-min Rain = 0
KSB1 190736Z 33016G21KT 07/M11 A3024 RMK A01 T00691109  RH  027%=      5-min Rain = 0
KSB1 190737Z 33020G25KT 07/M11 A3024 RMK A01 T00701110  RH  027%=      5-min Rain = 0
KSB1 190738Z 34020KT 07/M11 A3024 RMK A01 T00711110  RH  026%=      5-min Rain = 0
KSB1 190739Z 33017KT 07/M11 A3024 RMK A01 T00721110  RH  026%=      5-min Rain = 0
KSB1 190740Z 34017KT 07/M11 A3024 RMK A01 T00721109  RH  026%=      5-min Rain = 0
KSB1 190741Z 33015KT 07/M11 A3024 RMK A01 T00711109  RH  026%=      5-min Rain = 0
KSB1 190742Z 33013KT 07/M11 A3024 RMK A01 T00711109  RH  026%=      5-min Rain = 0
KSB1 190743Z 33016KT 07/M11 A3024 RMK A01 T00701109  RH  027%=      5-min Rain = 0
KSB1 190744Z 32012KT 07/M11 A3024 RMK A01 T00701108  RH  027%=      5-min Rain = 0
KSB1 190745Z 33012KT 07/M11 A3024 RMK A01 T00701109  RH  027%=      5-min Rain = 0
KSB1 190746Z 32011KT 07/M11 A3024 RMK A01 T00691108  RH  027%=      5-min Rain = 0
KSB1 190747Z 32012KT 07/M11 A3024 RMK A01 T00681107  RH  027%=      5-min Rain = 0
KSB1 190748Z 32012KT 07/M11 A3024 RMK A01 T00681106  RH  028%=      5-min Rain = 0
KSB1 190749Z 33011KT 07/M11 A3024 RMK A01 T00681105  RH  028%=      5-min Rain = 0
KSB1 190750Z 32013KT 07/M11 A3024 RMK A01 T00671105  RH  028%=      5-min Rain = 0
KSB1 190751Z 32013KT 07/M10 A3024 RMK A01 T00661104  RH  029%=      5-min Rain = 0
KSB1 190752Z 32012KT 07/M10 A3024 RMK A01 T00661103  RH  029%=      5-min Rain = 0
KSB1 190753Z 32012KT 07/M10 A3024 RMK A01 T00661102  RH  029%=      5-min Rain = 0
KSB1 190754Z 33015KT 07/M10 A3024 RMK A01 T00651100  RH  030%=      5-min Rain = 0
KSB1 190755Z 32013KT 07/M10 A3024 RMK A01 T00651098  RH  030%=      5-min Rain = 0
KSB1 190756Z 32011KT 06/M10 A3024 RMK A01 T00641097  RH  030%=      5-min Rain = 0
KSB1 190757Z 33015KT 06/M10 A3023 RMK A01 T00631096  RH  031%=      5-min Rain = 0
KSB1 190758Z 34017KT 06/M10 A3023 RMK A01 T00631095  RH  031%=      5-min Rain = 0
KSB1 190759Z 33016G21KT 06/M09 A3023 RMK A01 T00631094  RH  032%=      5-min Rain = 0
KSB1 190800Z 33014KT 06/M09 A3023 RMK A01 T00631093  RH  032%=      5-min Rain = 0
KSB1 190801Z 33015KT 06/M09 A3023 RMK A01 T00631093  RH  032%=      5-min Rain = 0
KSB1 190802Z 33016G22KT 06/M09 A3023 RMK A01 T00621093  RH  032%=      5-min Rain = 0
KSB1 190803Z 33017KT 06/M09 A3023 RMK A01 T00621092  RH  032%=      5-min Rain = 0
KSB1 190804Z 33015KT 06/M09 A3024 RMK A01 T00611092  RH  032%=      5-min Rain = 0
KSB1 190805Z 33014KT 06/M09 A3023 RMK A01 T00601092  RH  033%=      5-min Rain = 0
KSB1 190806Z 34012KT 06/M09 A3024 RMK A01 T00601092  RH  033%=      5-min Rain = 0
KSB1 190807Z 33015KT 06/M09 A3024 RMK A01 T00591092  RH  033%=      5-min Rain = 0
KSB1 190808Z 33013KT 06/M09 A3024 RMK A01 T00591092  RH  033%=      5-min Rain = 0
KSB1 190809Z 33014G19KT 06/M09 A3023 RMK A01 T00591091  RH  033%=      5-min Rain = 0
KSB1 190810Z 33013KT 06/M09 A3024 RMK A01 T00581091  RH  033%=      5-min Rain = 0
KSB1 190811Z 33015G21KT 06/M09 A3024 RMK A01 T00571091  RH  034%=      5-min Rain = 0
KSB1 190812Z 33015G20KT 06/M09 A3023 RMK A01 T00571091  RH  034%=      5-min Rain = 0
KSB1 190813Z 33015KT 06/M09 A3024 RMK A01 T00581091  RH  033%=      5-min Rain = 0
KSB1 190814Z 33016KT 06/M09 A3024 RMK A01 T00581092  RH  033%=      5-min Rain = 0
KSB1 190815Z 33015G20KT 06/M09 A3024 RMK A01 T00581092  RH  033%=      5-min Rain = 0
KSB1 190816Z 33017KT 06/M09 A3024 RMK A01 T00581092  RH  033%=      5-min Rain = 0
KSB1 190817Z 33015KT 06/M09 A3024 RMK A01 T00591092  RH  033%=      5-min Rain = 0
KSB1 190818Z 33012KT 06/M09 A3024 RMK A01 T00581092  RH  033%=      5-min Rain = 0
KSB1 190819Z 33017G22KT 06/M09 A3024 RMK A01 T00581092  RH  033%=      5-min Rain = 0
KSB1 190820Z 33017KT 06/M09 A3024 RMK A01 T00581092  RH  033%=      5-min Rain = 0
KSB1 190821Z 33015G21KT 06/M09 A3024 RMK A01 T00591092  RH  033%=      5-min Rain = 0
KSB1 190822Z 33016KT 06/M09 A3024 RMK A01 T00591092  RH  033%=      5-min Rain = 0
KSB1 190823Z 33016KT 06/M09 A3024 RMK A01 T00591092  RH  033%=      5-min Rain = 0
KSB1 190824Z 33016G22KT 06/M09 A3024 RMK A01 T00591092  RH  033%=      5-min Rain = 0
KSB1 190825Z 33017KT 06/M09 A3024 RMK A01 T00591092  RH  033%=      5-min Rain = 0
KSB1 190826Z 33015G20KT 06/M09 A3024 RMK A01 T00591093  RH  033%=      5-min Rain = 0
KSB1 190827Z 33017KT 06/M09 A3024 RMK A01 T00591093  RH  033%=      5-min Rain = 0
KSB1 190828Z 33016KT 06/M09 A3024 RMK A01 T00591094  RH  032%=      5-min Rain = 0
KSB1 190829Z 33015KT 06/M09 A3024 RMK A01 T00591094  RH  032%=      5-min Rain = 0
KSB1 190830Z 33015KT 06/M09 A3024 RMK A01 T00591094  RH  032%=      5-min Rain = 0
KSB1 190831Z 33013KT 06/M09 A3024 RMK A01 T00591094  RH  032%=      5-min Rain = 0
KSB1 190832Z 33015G20KT 06/M09 A3024 RMK A01 T00581094  RH  033%=      5-min Rain = 0
KSB1 190833Z 33013G18KT 06/M10 A3024 RMK A01 T00591095  RH  032%=      5-min Rain = 0
KSB1 190834Z 34011G16KT 06/M10 A3024 RMK A01 T00591095  RH  032%=      5-min Rain = 0
KSB1 190835Z 34014KT 06/M10 A3024 RMK A01 T00591095  RH  032%=      5-min Rain = 0
KSB1 190836Z 34014KT 06/M10 A3024 RMK A01 T00591095  RH  032%=      5-min Rain = 0
KSB1 190837Z 33016G21KT 06/M10 A3024 RMK A01 T00611095  RH  032%=      5-min Rain = 0
KSB1 190838Z 33014KT 06/M10 A3024 RMK A01 T00611095  RH  032%=      5-min Rain = 0
KSB1 190839Z 33011KT 06/M10 A3025 RMK A01 T00611095  RH  032%=      5-min Rain = 0
KSB1 190840Z 33011KT 06/M10 A3025 RMK A01 T00601095  RH  032%=      5-min Rain = 0
KSB1 190841Z 33014G19KT 06/M10 A3025 RMK A01 T00601095  RH  032%=      5-min Rain = 0
KSB1 190842Z 33016G21KT 06/M10 A3024 RMK A01 T00601095  RH  032%=      5-min Rain = 0
KSB1 190843Z 33013KT 06/M10 A3025 RMK A01 T00611095  RH  032%=      5-min Rain = 0
KSB1 190844Z 34015KT 06/M10 A3025 RMK A01 T00611095  RH  032%=      5-min Rain = 0
KSB1 190845Z 33015KT 06/M10 A3025 RMK A01 T00611095  RH  032%=      5-min Rain = 0
KSB1 190846Z 33014KT 06/M10 A3025 RMK A01 T00611095  RH  032%=      5-min Rain = 0
KSB1 190847Z 33014KT 06/M10 A3025 RMK A01 T00611095  RH  032%=      5-min Rain = 0
KSB1 190848Z 33012KT 06/M09 A3025 RMK A01 T00611094  RH  032%=      5-min Rain = 0
KSB1 190849Z 33010KT 06/M09 A3025 RMK A01 T00611094  RH  032%=      5-min Rain = 0
KSB1 190850Z 33013KT 06/M09 A3025 RMK A01 T00601094  RH  032%=      5-min Rain = 0
KSB1 190851Z 33012KT 06/M09 A3025 RMK A01 T00601094  RH  032%=      5-min Rain = 0
KSB1 190852Z 33012KT 06/M09 A3026 RMK A01 T00601094  RH  032%=      5-min Rain = 0
KSB1 190853Z 33012KT 06/M09 A3026 RMK A01 T00601093  RH  032%=      5-min Rain = 0
KSB1 190854Z 34013KT 06/M09 A3026 RMK A01 T00601093  RH  033%=      5-min Rain = 0
KSB1 190855Z 33012KT 06/M09 A3026 RMK A01 T00601092  RH  033%=      5-min Rain = 0
KSB1 190856Z 33012KT 06/M09 A3026 RMK A01 T00601092  RH  033%=      5-min Rain = 0
KSB1 190857Z 34011KT 06/M09 A3026 RMK A01 T00601091  RH  033%=      5-min Rain = 0
KSB1 190858Z 34010KT 06/M09 A3026 RMK A01 T00591091  RH  033%=      5-min Rain = 0
KSB1 190859Z 33010KT 06/M09 A3026 RMK A01 T00581091  RH  033%=      5-min Rain = 0
KSB1 190900Z 33012KT 06/M09 A3026 RMK A01 T00581091  RH  034%=      5-min Rain = 0
KSB1 190901Z 33009KT 06/M09 A3026 RMK A01 T00581090  RH  034%=      5-min Rain = 0
KSB1 190902Z 33010KT 06/M09 A3026 RMK A01 T00581090  RH  034%=      5-min Rain = 0
KSB1 190903Z 33011KT 06/M09 A3026 RMK A01 T00571090  RH  034%=      5-min Rain = 0
KSB1 190904Z 33011KT 06/M09 A3026 RMK A01 T00571089  RH  034%=      5-min Rain = 0
KSB1 190905Z 34009KT 06/M09 A3026 RMK A01 T00571089  RH  034%=      5-min Rain = 0
KSB1 190906Z 33009KT 06/M09 A3026 RMK A01 T00561089  RH  034%=      5-min Rain = 0
KSB1 190907Z 34010KT 06/M09 A3026 RMK A01 T00561089  RH  034%=      5-min Rain = 0
KSB1 190908Z 33011KT 06/M09 A3026 RMK A01 T00561089  RH  034%=      5-min Rain = 0
KSB1 190909Z 33011KT 06/M09 A3026 RMK A01 T00571088  RH  034%=      5-min Rain = 0
KSB1 190910Z 34013KT 06/M09 A3026 RMK A01 T00571089  RH  034%=      5-min Rain = 0
KSB1 190911Z 33012KT 06/M09 A3027 RMK A01 T00571088  RH  034%=      5-min Rain = 0
KSB1 190912Z 34012KT 06/M09 A3027 RMK A01 T00581089  RH  034%=      5-min Rain = 0
KSB1 190913Z 34009KT 06/M09 A3027 RMK A01 T00571088  RH  034%=      5-min Rain = 0
KSB1 190914Z 34010KT 06/M09 A3027 RMK A01 T00571088  RH  034%=      5-min Rain = 0
KSB1 190915Z 34010KT 06/M09 A3027 RMK A01 T00571088  RH  035%=      5-min Rain = 0
KSB1 190916Z 34010KT 06/M09 A3027 RMK A01 T00561088  RH  035%=      5-min Rain = 0
KSB1 190917Z 34010KT 06/M09 A3027 RMK A01 T00561087  RH  035%=      5-min Rain = 0
KSB1 190918Z 34011KT 06/M09 A3027 RMK A01 T00561087  RH  035%=      5-min Rain = 0
KSB1 190919Z 34012KT 06/M09 A3027 RMK A01 T00561087  RH  035%=      5-min Rain = 0
KSB1 190920Z 34009KT 06/M09 A3027 RMK A01 T00561087  RH  035%=      5-min Rain = 0
KSB1 190921Z 34010KT 06/M09 A3027 RMK A01 T00551087  RH  035%=      5-min Rain = 0
KSB1 190922Z 34009KT 06/M09 A3027 RMK A01 T00561086  RH  035%=      5-min Rain = 0
KSB1 190923Z 33010KT 06/M09 A3027 RMK A01 T00551087  RH  035%=      5-min Rain = 0
KSB1 190924Z 34011KT 06/M09 A3027 RMK A01 T00551086  RH  035%=      5-min Rain = 0
KSB1 190925Z 35012KT 05/M09 A3027 RMK A01 T00541087  RH  035%=      5-min Rain = 0
KSB1 190926Z 34011KT 06/M09 A3027 RMK A01 T00551087  RH  035%=      5-min Rain = 0
KSB1 190927Z 33010KT 06/M09 A3027 RMK A01 T00561086  RH  035%=      5-min Rain = 0
KSB1 190928Z 33010KT 06/M09 A3027 RMK A01 T00551086  RH  035%=      5-min Rain = 0
KSB1 190929Z 34011KT 05/M09 A3027 RMK A01 T00531086  RH  036%=      5-min Rain = 0
KSB1 190930Z 33011KT 05/M09 A3027 RMK A01 T00531086  RH  036%=      5-min Rain = 0
KSB1 190931Z 33011KT 05/M09 A3028 RMK A01 T00531085  RH  036%=      5-min Rain = 0
KSB1 190932Z 33010KT 05/M09 A3028 RMK A01 T00531085  RH  036%=      5-min Rain = 0
KSB1 190933Z 33010KT 05/M09 A3028 RMK A01 T00521086  RH  036%=      5-min Rain = 0
KSB1 190934Z 34010KT 05/M09 A3028 RMK A01 T00511085  RH  037%=      5-min Rain = 0
KSB1 190935Z 33011KT 05/M09 A3027 RMK A01 T00511085  RH  037%=      5-min Rain = 0
KSB1 190936Z 33011KT 05/M09 A3028 RMK A01 T00511085  RH  037%=      5-min Rain = 0
KSB1 190937Z 34010KT 05/M09 A3028 RMK A01 T00511085  RH  037%=      5-min Rain = 0
KSB1 190938Z 33010KT 05/M09 A3028 RMK A01 T00511085  RH  037%=      5-min Rain = 0
KSB1 190939Z 33010KT 05/M09 A3028 RMK A01 T00501085  RH  037%=      5-min Rain = 0
KSB1 190940Z 33010KT 05/M09 A3028 RMK A01 T00501085  RH  037%=      5-min Rain = 0
KSB1 190941Z 33012KT 05/M09 A3027 RMK A01 T00491085  RH  037%=      5-min Rain = 0
KSB1 190942Z 33013KT 05/M09 A3027 RMK A01 T00491085  RH  037%=      5-min Rain = 0
KSB1 190943Z 33012KT 05/M09 A3028 RMK A01 T00501085  RH  037%=      5-min Rain = 0
KSB1 190944Z 33013KT 05/M09 A3028 RMK A01 T00511085  RH  037%=      5-min Rain = 0
KSB1 190945Z 33013KT 05/M08 A3028 RMK A01 T00511084  RH  037%=      5-min Rain = 0
KSB1 190946Z 33012KT 05/M08 A3028 RMK A01 T00511084  RH  037%=      5-min Rain = 0
KSB1 190947Z 33011KT 05/M08 A3028 RMK A01 T00521084  RH  037%=      5-min Rain = 0
KSB1 190948Z 33010KT 05/M08 A3028 RMK A01 T00521084  RH  037%=      5-min Rain = 0
KSB1 190949Z 32011KT 05/M08 A3028 RMK A01 T00521084  RH  037%=      5-min Rain = 0
KSB1 190950Z 32011KT 05/M08 A3028 RMK A01 T00511084  RH  037%=      5-min Rain = 0
KSB1 190951Z 32012KT 05/M08 A3028 RMK A01 T00501084  RH  037%=      5-min Rain = 0
KSB1 190952Z 32011KT 05/M08 A3028 RMK A01 T00491083  RH  038%=      5-min Rain = 0
KSB1 190953Z 32013KT 05/M08 A3028 RMK A01 T00491083  RH  038%=      5-min Rain = 0
KSB1 190954Z 33012KT 05/M08 A3028 RMK A01 T00491083  RH  038%=      5-min Rain = 0
KSB1 190955Z 33012KT 05/M08 A3028 RMK A01 T00491083  RH  038%=      5-min Rain = 0
KSB1 190956Z 33012KT 05/M08 A3028 RMK A01 T00491083  RH  038%=      5-min Rain = 0
KSB1 190957Z 33012KT 05/M08 A3028 RMK A01 T00491083  RH  038%=      5-min Rain = 0
KSB1 190958Z 33012KT 05/M08 A3028 RMK A01 T00491083  RH  038%=      5-min Rain = 0
KSB1 190959Z 33011KT 05/M08 A3028 RMK A01 T00481083  RH  038%=      5-min Rain = 0
KSB1 191000Z 33012KT 05/M08 A3028 RMK A01 T00481083  RH  038%=      5-min Rain = 0
KSB1 191001Z 33012KT 05/M08 A3028 RMK A01 T00481083  RH  038%=      5-min Rain = 0
KSB1 191002Z 33011KT 05/M08 A3028 RMK A01 T00481083  RH  038%=      5-min Rain = 0
KSB1 191003Z 33013KT 05/M08 A3028 RMK A01 T00481083  RH  038%=      5-min Rain = 0
KSB1 191004Z 33012KT 05/M08 A3028 RMK A01 T00481083  RH  038%=      5-min Rain = 0
KSB1 191005Z 33011KT 05/M08 A3028 RMK A01 T00481083  RH  038%=      5-min Rain = 0
KSB1 191006Z 33010KT 05/M08 A3028 RMK A01 T00481083  RH  038%=      5-min Rain = 0
KSB1 191007Z 32010KT 05/M08 A3029 RMK A01 T00481083  RH  038%=      5-min Rain = 0
KSB1 191008Z 32010KT 05/M08 A3029 RMK A01 T00471083  RH  038%=      5-min Rain = 0
KSB1 191009Z 32012KT 05/M08 A3029 RMK A01 T00461083  RH  038%=      5-min Rain = 0
KSB1 191010Z 32010KT 05/M08 A3029 RMK A01 T00461083  RH  039%=      5-min Rain = 0
KSB1 191011Z 32010KT 05/M08 A3029 RMK A01 T00461083  RH  039%=      5-min Rain = 0
KSB1 191012Z 32009KT 05/M08 A3029 RMK A01 T00451083  RH  039%=      5-min Rain = 0
KSB1 191013Z 32010KT 05/M08 A3029 RMK A01 T00451082  RH  039%=      5-min Rain = 0
KSB1 191014Z 32010KT 05/M08 A3029 RMK A01 T00451082  RH  039%=      5-min Rain = 0
KSB1 191015Z 32010KT 05/M08 A3029 RMK A01 T00451082  RH  039%=      5-min Rain = 0
KSB1 191016Z 32011KT 05/M08 A3029 RMK A01 T00451082  RH  039%=      5-min Rain = 0
KSB1 191017Z 32011KT 05/M08 A3029 RMK A01 T00451082  RH  039%=      5-min Rain = 0
KSB1 191018Z 32010KT 05/M08 A3029 RMK A01 T00451082  RH  039%=      5-min Rain = 0
KSB1 191019Z 32011KT 05/M08 A3029 RMK A01 T00451082  RH  039%=      5-min Rain = 0
KSB1 191020Z 31010KT 05/M08 A3029 RMK A01 T00451082  RH  039%=      5-min Rain = 0
KSB1 191021Z 32011KT 05/M08 A3029 RMK A01 T00451082  RH  039%=      5-min Rain = 0
KSB1 191022Z 32011KT 05/M08 A3029 RMK A01 T00451083  RH  039%=      5-min Rain = 0
KSB1 191023Z 31012KT 05/M08 A3029 RMK A01 T00451083  RH  039%=      5-min Rain = 0
KSB1 191024Z 31011KT 05/M08 A3029 RMK A01 T00461082  RH  039%=      5-min Rain = 0
KSB1 191025Z 31011KT 05/M08 A3029 RMK A01 T00461083  RH  039%=      5-min Rain = 0
KSB1 191026Z 32011KT 05/M08 A3029 RMK A01 T00461083  RH  039%=      5-min Rain = 0
KSB1 191027Z 31010KT 05/M08 A3029 RMK A01 T00461083  RH  039%=      5-min Rain = 0
KSB1 191028Z 31012KT 05/M08 A3029 RMK A01 T00461083  RH  039%=      5-min Rain = 0
KSB1 191029Z 32012KT 05/M08 A3029 RMK A01 T00461083  RH  039%=      5-min Rain = 0
KSB1 191030Z 32011KT 05/M08 A3029 RMK A01 T00461083  RH  039%=      5-min Rain = 0
KSB1 191031Z 32012KT 05/M08 A3029 RMK A01 T00461083  RH  039%=      5-min Rain = 0
KSB1 191032Z 32013KT 05/M08 A3028 RMK A01 T00461083  RH  039%=      5-min Rain = 0
KSB1 191033Z 32013KT 05/M08 A3028 RMK A01 T00461083  RH  039%=      5-min Rain = 0
KSB1 191034Z 33012KT 05/M08 A3028 RMK A01 T00461083  RH  039%=      5-min Rain = 0
KSB1 191035Z 32012KT 05/M08 A3029 RMK A01 T00461083  RH  039%=      5-min Rain = 0
KSB1 191036Z 33011KT 05/M08 A3028 RMK A01 T00461083  RH  039%=      5-min Rain = 0
KSB1 191037Z 33013KT 05/M08 A3028 RMK A01 T00451083  RH  039%=      5-min Rain = 0
KSB1 191038Z 33012KT 05/M08 A3028 RMK A01 T00451083  RH  039%=      5-min Rain = 0
KSB1 191039Z 33012KT 04/M08 A3028 RMK A01 T00441083  RH  039%=      5-min Rain = 0
KSB1 191040Z 33012KT 04/M08 A3028 RMK A01 T00441083  RH  039%=      5-min Rain = 0
KSB1 191041Z 33012KT 04/M08 A3028 RMK A01 T00431083  RH  039%=      5-min Rain = 0
KSB1 191042Z 33011KT 04/M08 A3028 RMK A01 T00431083  RH  039%=      5-min Rain = 0
KSB1 191043Z 33012KT 04/M08 A3028 RMK A01 T00431083  RH  040%=      5-min Rain = 0
KSB1 191044Z 33012KT 04/M08 A3028 RMK A01 T00421083  RH  040%=      5-min Rain = 0
KSB1 191045Z 33012KT 04/M08 A3028 RMK A01 T00411082  RH  040%=      5-min Rain = 0
KSB1 191046Z 33012KT 04/M08 A3028 RMK A01 T00411083  RH  040%=      5-min Rain = 0
KSB1 191047Z 33012KT 04/M08 A3028 RMK A01 T00411083  RH  040%=      5-min Rain = 0
KSB1 191048Z 33012KT 04/M08 A3028 RMK A01 T00411083  RH  040%=      5-min Rain = 0
KSB1 191049Z 33011KT 04/M08 A3028 RMK A01 T00401083  RH  040%=      5-min Rain = 0
KSB1 191050Z 33011KT 04/M08 A3028 RMK A01 T00401083  RH  040%=      5-min Rain = 0
KSB1 191051Z 33013KT 04/M08 A3028 RMK A01 T00391083  RH  041%=      5-min Rain = 0
KSB1 191052Z 33011KT 04/M08 A3028 RMK A01 T00391083  RH  041%=      5-min Rain = 0
KSB1 191053Z 33012KT 04/M08 A3028 RMK A01 T00391082  RH  041%=      5-min Rain = 0
KSB1 191054Z 33010KT 04/M08 A3028 RMK A01 T00381082  RH  041%=      5-min Rain = 0
KSB1 191055Z 33011KT 04/M08 A3028 RMK A01 T00381082  RH  041%=      5-min Rain = 0
KSB1 191056Z 32010KT 04/M08 A3028 RMK A01 T00371082  RH  041%=      5-min Rain = 0
KSB1 191057Z 32009KT 04/M08 A3028 RMK A01 T00371082  RH  041%=      5-min Rain = 0
KSB1 191058Z 32010KT 04/M08 A3028 RMK A01 T00371082  RH  042%=      5-min Rain = 0
KSB1 191059Z 32010KT 04/M08 A3029 RMK A01 T00371082  RH  042%=      5-min Rain = 0
KSB1 191100Z 32011KT 04/M08 A3029 RMK A01 T00361082  RH  042%=      5-min Rain = 0
KSB1 191101Z 32011KT 04/M08 A3029 RMK A01 T00361082  RH  042%=      5-min Rain = 0
KSB1 191102Z 32010KT 04/M08 A3029 RMK A01 T00371082  RH  042%=      5-min Rain = 0
KSB1 191103Z 33011KT 04/M08 A3029 RMK A01 T00371082  RH  042%=      5-min Rain = 0
KSB1 191104Z 32009KT 04/M08 A3029 RMK A01 T00361082  RH  042%=      5-min Rain = 0
KSB1 191105Z 33009KT 04/M08 A3029 RMK A01 T00361082  RH  042%=      5-min Rain = 0
KSB1 191106Z 33007KT 04/M08 A3029 RMK A01 T00361082  RH  042%=      5-min Rain = 0
KSB1 191107Z 34006KT 04/M08 A3029 RMK A01 T00361082  RH  042%=      5-min Rain = 0
KSB1 191108Z 35005KT 04/M08 A303 RMK A01 T00361081  RH  042%=      5-min Rain = 0
KSB1 191109Z 03003KT 04/M08 A303 RMK A01 T00351082  RH  042%=      5-min Rain = 0
KSB1 191110Z 09004KT 03/M08 A303 RMK A01 T00331083  RH  042%=      5-min Rain = 0
KSB1 191111Z 12006KT 03/M08 A303 RMK A01 T00301084  RH  043%=      5-min Rain = 0
KSB1 191112Z 12005KT 03/M09 A303 RMK A01 T00271085  RH  044%=      5-min Rain = 0
KSB1 191113Z 11007KT 03/M09 A303 RMK A01 T00251085  RH  044%=      5-min Rain = 0
KSB1 191114Z 11007KT 02/M08 A303 RMK A01 T00241084  RH  045%=      5-min Rain = 0
KSB1 191115Z 11005KT 02/M08 A303 RMK A01 T00241083  RH  045%=      5-min Rain = 0
KSB1 191116Z 10003KT 03/M08 A303 RMK A01 T00261082  RH  045%=      5-min Rain = 0
KSB1 191117Z 12004KT 03/M08 A303 RMK A01 T00271082  RH  045%=      5-min Rain = 0
KSB1 191118Z 13004KT 03/M08 A303 RMK A01 T00281082  RH  044%=      5-min Rain = 0
KSB1 191119Z 13005KT 03/M08 A303 RMK A01 T00271083  RH  044%=      5-min Rain = 0
KSB1 191120Z 13005KT 03/M08 A303 RMK A01 T00251084  RH  044%=      5-min Rain = 0
KSB1 191121Z 12004KT 02/M09 A303 RMK A01 T00241085  RH  045%=      5-min Rain = 0
KSB1 191122Z 13004KT 02/M08 A303 RMK A01 T00221084  RH  045%=      5-min Rain = 0
KSB1 191123Z 16005KT 02/M08 A303 RMK A01 T00221084  RH  045%=      5-min Rain = 0
KSB1 191124Z 19002KT 02/M08 A303 RMK A01 T00231083  RH  046%=      5-min Rain = 0
KSB1 191125Z 17002KT 03/M08 A303 RMK A01 T00261081  RH  045%=      5-min Rain = 0
KSB1 191126Z 14003KT 03/M08 A303 RMK A01 T00271081  RH  045%=      5-min Rain = 0
KSB1 191127Z 08003KT 03/M08 A3031 RMK A01 T00261083  RH  044%=      5-min Rain = 0
KSB1 191128Z 08004KT 03/M08 A3031 RMK A01 T00251083  RH  045%=      5-min Rain = 0
KSB1 191129Z 08003KT 03/M08 A3031 RMK A01 T00261082  RH  045%=      5-min Rain = 0
KSB1 191130Z 10004KT 03/M08 A3031 RMK A01 T00261083  RH  045%=      5-min Rain = 0
KSB1 191131Z 10003KT 02/M08 A3031 RMK A01 T00241084  RH  045%=      5-min Rain = 0
KSB1 191132Z 09003KT 02/M09 A3031 RMK A01 T00221085  RH  045%=      5-min Rain = 0
KSB1 191133Z 09003KT 02/M08 A3031 RMK A01 T00201084  RH  046%=      5-min Rain = 0
KSB1 191134Z 09003KT 02/M08 A3031 RMK A01 T00191084  RH  046%=      5-min Rain = 0
KSB1 191135Z 08003KT 02/M08 A3031 RMK A01 T00191084  RH  047%=      5-min Rain = 0
KSB1 191136Z 08003KT 02/M08 A3031 RMK A01 T00191083  RH  047%=      5-min Rain = 0
KSB1 191137Z 09003KT 02/M08 A3031 RMK A01 T00201083  RH  046%=      5-min Rain = 0
KSB1 191138Z 08003KT 02/M08 A3031 RMK A01 T00201083  RH  046%=      5-min Rain = 0
KSB1 191139Z 08003KT 02/M08 A3031 RMK A01 T00201083  RH  046%=      5-min Rain = 0
KSB1 191140Z 09003KT 02/M08 A3031 RMK A01 T00191084  RH  046%=      5-min Rain = 0
KSB1 191141Z 09003KT 02/M08 A3031 RMK A01 T00191083  RH  047%=      5-min Rain = 0
KSB1 191142Z 10003KT 02/M08 A3031 RMK A01 T00191084  RH  047%=      5-min Rain = 0
KSB1 191143Z 09003KT 02/M08 A3031 RMK A01 T00181084  RH  047%=      5-min Rain = 0
KSB1 191144Z 09002KT 02/M08 A3031 RMK A01 T00181084  RH  047%=      5-min Rain = 0
KSB1 191145Z 09002KT 02/M08 A3031 RMK A01 T00181084  RH  047%=      5-min Rain = 0
KSB1 191146Z 10002KT 02/M08 A3031 RMK A01 T00171084  RH  047%=      5-min Rain = 0
KSB1 191147Z 09002KT 02/M08 A3031 RMK A01 T00171084  RH  047%=      5-min Rain = 0
KSB1 191148Z 09002KT 02/M08 A3031 RMK A01 T00161084  RH  047%=      5-min Rain = 0
KSB1 191149Z 09002KT 02/M08 A3031 RMK A01 T00161084  RH  047%=      5-min Rain = 0
KSB1 191150Z 08001KT 02/M08 A3031 RMK A01 T00151084  RH  048%=      5-min Rain = 0
KSB1 191151Z 08002KT 02/M08 A3031 RMK A01 T00151084  RH  048%=      5-min Rain = 0
KSB1 191152Z 08001KT 01/M08 A3031 RMK A01 T00141084  RH  048%=      5-min Rain = 0
KSB1 191153Z 06001KT 01/M08 A3031 RMK A01 T00141084  RH  048%=      5-min Rain = 0
KSB1 191154Z 07002KT 02/M08 A3031 RMK A01 T00151083  RH  048%=      5-min Rain = 0
KSB1 191155Z 04001KT 02/M08 A3031 RMK A01 T00161083  RH  048%=      5-min Rain = 0
KSB1 191156Z 03001KT 02/M08 A3031 RMK A01 T00171083  RH  048%=      5-min Rain = 0
KSB1 191157Z 01002KT 02/M08 A3031 RMK A01 T00171083  RH  048%=      5-min Rain = 0
KSB1 191158Z 01002KT 02/M08 A3031 RMK A01 T00171083  RH  047%=      5-min Rain = 0
KSB1 191159Z 02002KT 02/M08 A3031 RMK A01 T00181083  RH  047%=      5-min Rain = 0
KSB1 191200Z 01002KT 02/M08 A3031 RMK A01 T00171083  RH  047%=      5-min Rain = 0
KSB1 191201Z 01002KT 02/M08 A3031 RMK A01 T00171083  RH  047%=      5-min Rain = 0
KSB1 191202Z 01002KT 02/M08 A3031 RMK A01 T00171083  RH  047%=      5-min Rain = 0
KSB1 191203Z 00001KT 02/M08 A3031 RMK A01 T00171083  RH  048%=      5-min Rain = 0
KSB1 191204Z 01002KT 02/M08 A3031 RMK A01 T00171083  RH  048%=      5-min Rain = 0
KSB1 191205Z 35002KT 02/M08 A3031 RMK A01 T00161083  RH  048%=      5-min Rain = 0
KSB1 191206Z 34002KT 02/M08 A3031 RMK A01 T00161082  RH  048%=      5-min Rain = 0
KSB1 191207Z 33002KT 02/M08 A3031 RMK A01 T00171082  RH  048%=      5-min Rain = 0
KSB1 191208Z 34002KT 02/M08 A3032 RMK A01 T00181082  RH  048%=      5-min Rain = 0
KSB1 191209Z 34002KT 02/M08 A3032 RMK A01 T00181082  RH  047%=      5-min Rain = 0
KSB1 191210Z 34002KT 02/M08 A3032 RMK A01 T00191081  RH  047%=      5-min Rain = 0
KSB1 191211Z 33002KT 02/M08 A3031 RMK A01 T00191082  RH  047%=      5-min Rain = 0
KSB1 191212Z 33001KT 02/M08 A3031 RMK A01 T00191082  RH  047%=      5-min Rain = 0
KSB1 191213Z 34002KT 02/M08 A3031 RMK A01 T00191082  RH  047%=      5-min Rain = 0
KSB1 191214Z 31002KT 02/M08 A3031 RMK A01 T00201082  RH  047%=      5-min Rain = 0
KSB1 191215Z 30002KT 02/M08 A3031 RMK A01 T00211082  RH  047%=      5-min Rain = 0
KSB1 191216Z 30002KT 02/M08 A3031 RMK A01 T00201082  RH  047%=      5-min Rain = 0
KSB1 191217Z 30002KT 02/M08 A3031 RMK A01 T00191082  RH  047%=      5-min Rain = 0
KSB1 191218Z 31001KT 02/M08 A3031 RMK A01 T00181082  RH  048%=      5-min Rain = 0
KSB1 191219Z 32002KT 02/M08 A3031 RMK A01 T00181082  RH  048%=      5-min Rain = 0
KSB1 191220Z 32002KT 02/M08 A3032 RMK A01 T00191081  RH  047%=      5-min Rain = 0
KSB1 191221Z 32002KT 02/M08 A3032 RMK A01 T00211082  RH  047%=      5-min Rain = 0
KSB1 191222Z 34002KT 02/M08 A3032 RMK A01 T00221082  RH  046%=      5-min Rain = 0
KSB1 191223Z 35002KT 02/M08 A3032 RMK A01 T00221082  RH  046%=      5-min Rain = 0
KSB1 191224Z 34002KT 02/M08 A3032 RMK A01 T00221082  RH  046%=      5-min Rain = 0
KSB1 191225Z 33002KT 02/M08 A3032 RMK A01 T00211082  RH  046%=      5-min Rain = 0
KSB1 191226Z 32003KT 02/M08 A3032 RMK A01 T00211082  RH  047%=      5-min Rain = 0
KSB1 191227Z 33003KT 02/M08 A3032 RMK A01 T00201082  RH  047%=      5-min Rain = 0
KSB1 191228Z 33003KT 02/M08 A3032 RMK A01 T00191082  RH  047%=      5-min Rain = 0
KSB1 191229Z 33004KT 02/M08 A3032 RMK A01 T00181082  RH  047%=      5-min Rain = 0
KSB1 191230Z 32004KT 02/M08 A3032 RMK A01 T00181082  RH  047%=      5-min Rain = 0
KSB1 191231Z 33004KT 02/M08 A3032 RMK A01 T00191082  RH  047%=      5-min Rain = 0
KSB1 191232Z 33004KT 02/M08 A3032 RMK A01 T00201081  RH  047%=      5-min Rain = 0
KSB1 191233Z 34004KT 02/M08 A3032 RMK A01 T00211081  RH  047%=      5-min Rain = 0
KSB1 191234Z 34004KT 02/M08 A3032 RMK A01 T00221082  RH  046%=      5-min Rain = 0
KSB1 191235Z 34004KT 02/M08 A3032 RMK A01 T00221082  RH  046%=      5-min Rain = 0
KSB1 191236Z 34004KT 02/M08 A3032 RMK A01 T00221082  RH  046%=      5-min Rain = 0
KSB1 191237Z 34004KT 02/M08 A3032 RMK A01 T00221082  RH  046%=      5-min Rain = 0
KSB1 191238Z 33004KT 02/M08 A3032 RMK A01 T00221082  RH  046%=      5-min Rain = 0
KSB1 191239Z 33003KT 02/M08 A3032 RMK A01 T00211082  RH  046%=      5-min Rain = 0
KSB1 191240Z 33003KT 02/M08 A3032 RMK A01 T00221082  RH  046%=      5-min Rain = 0
KSB1 191241Z 33003KT 02/M08 A3032 RMK A01 T00221082  RH  046%=      5-min Rain = 0
KSB1 191242Z 34003KT 02/M08 A3032 RMK A01 T00231082  RH  046%=      5-min Rain = 0
KSB1 191243Z 35002KT 02/M08 A3033 RMK A01 T00231082  RH  046%=      5-min Rain = 0
KSB1 191244Z 00002KT 02/M08 A3033 RMK A01 T00231083  RH  046%=      5-min Rain = 0
KSB1 191245Z 01002KT 02/M08 A3033 RMK A01 T00231082  RH  046%=      5-min Rain = 0
KSB1 191246Z 03001KT 02/M08 A3033 RMK A01 T00231082  RH  046%=      5-min Rain = 0
KSB1 191247Z 04001KT 02/M08 A3033 RMK A01 T00241082  RH  046%=      5-min Rain = 0
KSB1 191248Z 05002KT 02/M08 A3033 RMK A01 T00241082  RH  046%=      5-min Rain = 0
KSB1 191249Z 05001KT 02/M08 A3033 RMK A01 T00231082  RH  046%=      5-min Rain = 0
KSB1 191250Z 04000KT 02/M08 A3033 RMK A01 T00231082  RH  046%=      5-min Rain = 0
KSB1 191251Z 03000KT 02/M08 A3033 RMK A01 T00221082  RH  046%=      5-min Rain = 0
KSB1 191252Z 03001KT 02/M08 A3033 RMK A01 T00221082  RH  046%=      5-min Rain = 0
KSB1 191253Z 01001KT 02/M08 A3033 RMK A01 T00221082  RH  046%=      5-min Rain = 0
KSB1 191254Z 00002KT 02/M08 A3033 RMK A01 T00221082  RH  046%=      5-min Rain = 0
KSB1 191255Z 35002KT 02/M08 A3033 RMK A01 T00221082  RH  046%=      5-min Rain = 0
KSB1 191256Z 34002KT 02/M08 A3033 RMK A01 T00221083  RH  046%=      5-min Rain = 0
KSB1 191257Z 35002KT 02/M08 A3033 RMK A01 T00231082  RH  046%=      5-min Rain = 0
KSB1 191258Z 34003KT 02/M08 A3033 RMK A01 T00231083  RH  046%=      5-min Rain = 0
KSB1 191259Z 35004KT 02/M08 A3033 RMK A01 T00231082  RH  046%=      5-min Rain = 0
KSB1 191300Z 35003KT 02/M08 A3033 RMK A01 T00221083  RH  046%=      5-min Rain = 0
KSB1 191301Z 34003KT 02/M08 A3033 RMK A01 T00201083  RH  046%=      5-min Rain = 0
KSB1 191302Z 35004KT 02/M08 A3033 RMK A01 T00191082  RH  047%=      5-min Rain = 0
KSB1 191303Z 35003KT 02/M08 A3033 RMK A01 T00181082  RH  047%=      5-min Rain = 0
KSB1 191304Z 00003KT 02/M08 A3034 RMK A01 T00181082  RH  048%=      5-min Rain = 0
KSB1 191305Z 02003KT 02/M08 A3034 RMK A01 T00171082  RH  048%=      5-min Rain = 0
KSB1 191306Z 03004KT 02/M08 A3034 RMK A01 T00171082  RH  048%=      5-min Rain = 0
KSB1 191307Z 03004KT 02/M08 A3034 RMK A01 T00161082  RH  048%=      5-min Rain = 0
KSB1 191308Z 04004KT 02/M08 A3034 RMK A01 T00151083  RH  048%=      5-min Rain = 0
KSB1 191309Z 04004KT 01/M08 A3034 RMK A01 T00131082  RH  049%=      5-min Rain = 0
KSB1 191310Z 03004KT 01/M08 A3034 RMK A01 T00121082  RH  050%=      5-min Rain = 0
KSB1 191311Z 01004KT 01/M08 A3034 RMK A01 T00111082  RH  050%=      5-min Rain = 0
KSB1 191312Z 02004KT 01/M08 A3034 RMK A01 T00091082  RH  050%=      5-min Rain = 0
KSB1 191313Z 02004KT 01/M08 A3034 RMK A01 T00081083  RH  051%=      5-min Rain = 0
KSB1 191314Z 01004KT 01/M08 A3034 RMK A01 T00071082  RH  051%=      5-min Rain = 0
KSB1 191315Z 02004KT 01/M08 A3034 RMK A01 T00071082  RH  051%=      5-min Rain = 0
KSB1 191316Z 01004KT 01/M08 A3034 RMK A01 T00081081  RH  051%=      5-min Rain = 0
KSB1 191317Z 02004KT 01/M08 A3034 RMK A01 T00091082  RH  051%=      5-min Rain = 0
KSB1 191318Z 02005KT 01/M08 A3034 RMK A01 T00091083  RH  050%=      5-min Rain = 0
KSB1 191319Z 03005KT 01/M08 A3034 RMK A01 T00111082  RH  050%=      5-min Rain = 0
KSB1 191320Z 03005KT 01/M08 A3034 RMK A01 T00121082  RH  050%=      5-min Rain = 0
KSB1 191321Z 02005KT 01/M08 A3034 RMK A01 T00121082  RH  049%=      5-min Rain = 0
KSB1 191322Z 02005KT 01/M08 A3034 RMK A01 T00111083  RH  049%=      5-min Rain = 0
KSB1 191323Z 02005KT 01/M08 A3034 RMK A01 T00091084  RH  050%=      5-min Rain = 0
KSB1 191324Z 01005KT 01/M08 A3034 RMK A01 T00081084  RH  050%=      5-min Rain = 0
KSB1 191325Z 01005KT 01/M08 A3035 RMK A01 T00081084  RH  050%=      5-min Rain = 0
KSB1 191326Z 02005KT 01/M08 A3035 RMK A01 T00081084  RH  050%=      5-min Rain = 0
KSB1 191327Z 02005KT 01/M08 A3035 RMK A01 T00081084  RH  050%=      5-min Rain = 0
KSB1 191328Z 02006KT 01/M08 A3035 RMK A01 T00071084  RH  051%=      5-min Rain = 0
KSB1 191329Z 01006KT 01/M08 A3035 RMK A01 T00061084  RH  051%=      5-min Rain = 0
KSB1 191330Z 01006KT 01/M08 A3035 RMK A01 T00051084  RH  051%=      5-min Rain = 0
KSB1 191331Z 01006KT 00/M08 A3035 RMK A01 T00041084  RH  052%=      5-min Rain = 0
KSB1 191332Z 01007KT 01/M08 A3035 RMK A01 T00051084  RH  052%=      5-min Rain = 0
KSB1 191333Z 01007KT 01/M08 A3035 RMK A01 T00061083  RH  051%=      5-min Rain = 0
KSB1 191334Z 01006KT 01/M08 A3035 RMK A01 T00071083  RH  051%=      5-min Rain = 0
KSB1 191335Z 01007KT 01/M08 A3035 RMK A01 T00071084  RH  051%=      5-min Rain = 0
KSB1 191336Z 00007KT 01/M08 A3035 RMK A01 T00061084  RH  051%=      5-min Rain = 0
KSB1 191337Z 00007KT 00/M09 A3035 RMK A01 T00041085  RH  051%=      5-min Rain = 0
KSB1 191338Z 00007KT 00/M09 A3035 RMK A01 T00031085  RH  052%=      5-min Rain = 0
KSB1 191339Z 00006KT 00/M08 A3035 RMK A01 T00031084  RH  052%=      5-min Rain = 0
KSB1 191340Z 00006KT 00/M08 A3035 RMK A01 T00031084  RH  052%=      5-min Rain = 0
KSB1 191341Z 00006KT 00/M08 A3035 RMK A01 T00041083  RH  052%=      5-min Rain = 0
KSB1 191342Z 36006KT 01/M08 A3035 RMK A01 T00051083  RH  052%=      5-min Rain = 0
KSB1 191343Z 36007KT 01/M08 A3035 RMK A01 T00051083  RH  052%=      5-min Rain = 0
KSB1 191344Z 35007KT 01/M08 A3035 RMK A01 T00051083  RH  052%=      5-min Rain = 0
KSB1 191345Z 35007KT 01/M08 A3035 RMK A01 T00061082  RH  051%=      5-min Rain = 0
KSB1 191346Z 34006KT 01/M08 A3035 RMK A01 T00071082  RH  051%=      5-min Rain = 0
KSB1 191347Z 34007KT 01/M08 A3036 RMK A01 T00081082  RH  051%=      5-min Rain = 0
KSB1 191348Z 34006KT 01/M08 A3036 RMK A01 T00091082  RH  051%=      5-min Rain = 0
KSB1 191349Z 34007KT 01/M08 A3036 RMK A01 T00101081  RH  050%=      5-min Rain = 0
KSB1 191350Z 34007KT 01/M08 A3036 RMK A01 T00111081  RH  050%=      5-min Rain = 0
KSB1 191351Z 34007KT 01/M08 A3036 RMK A01 T00121081  RH  050%=      5-min Rain = 0
KSB1 191352Z 34007KT 01/M08 A3036 RMK A01 T00131081  RH  050%=      5-min Rain = 0
KSB1 191353Z 34007KT 01/M08 A3036 RMK A01 T00131081  RH  050%=      5-min Rain = 0
KSB1 191354Z 34007KT 01/M08 A3036 RMK A01 T00131081  RH  050%=      5-min Rain = 0
KSB1 191355Z 34007KT 01/M08 A3036 RMK A01 T00131081  RH  050%=      5-min Rain = 0
KSB1 191356Z 34007KT 01/M08 A3036 RMK A01 T00141081  RH  049%=      5-min Rain = 0
KSB1 191357Z 34007KT 01/M08 A3036 RMK A01 T00141081  RH  049%=      5-min Rain = 0
KSB1 191358Z 34007KT 01/M08 A3036 RMK A01 T00141081  RH  049%=      5-min Rain = 0
KSB1 191359Z 34007KT 01/M08 A3036 RMK A01 T00141081  RH  049%=      5-min Rain = 0
KSB1 191400Z 34007KT 01/M08 A3036 RMK A01 T00141081  RH  049%=      5-min Rain = 0
KSB1 191401Z 34007KT 01/M08 A3036 RMK A01 T00141080  RH  050%=      5-min Rain = 0
KSB1 191402Z 34007KT 01/M08 A3036 RMK A01 T00141080  RH  050%=      5-min Rain = 0
KSB1 191403Z 33008KT 01/M08 A3036 RMK A01 T00141080  RH  049%=      5-min Rain = 0
KSB1 191404Z 33008KT 01/M08 A3036 RMK A01 T00141081  RH  049%=      5-min Rain = 0
KSB1 191405Z 33008KT 02/M08 A3036 RMK A01 T00151081  RH  049%=      5-min Rain = 0
KSB1 191406Z 33008KT 02/M08 A3036 RMK A01 T00151081  RH  049%=      5-min Rain = 0
KSB1 191407Z 33008KT 02/M08 A3036 RMK A01 T00161081  RH  049%=      5-min Rain = 0
KSB1 191408Z 33008KT 02/M08 A3036 RMK A01 T00161081  RH  049%=      5-min Rain = 0
KSB1 191409Z 33008KT 02/M08 A3036 RMK A01 T00161081  RH  049%=      5-min Rain = 0
KSB1 191410Z 33007KT 02/M08 A3036 RMK A01 T00171080  RH  049%=      5-min Rain = 0
KSB1 191411Z 34007KT 02/M08 A3036 RMK A01 T00171080  RH  048%=      5-min Rain = 0
KSB1 191412Z 33007KT 02/M08 A3037 RMK A01 T00181080  RH  048%=      5-min Rain = 0
KSB1 191413Z 33007KT 02/M08 A3037 RMK A01 T00181080  RH  048%=      5-min Rain = 0
KSB1 191414Z 33006KT 02/M08 A3037 RMK A01 T00181080  RH  048%=      5-min Rain = 0
KSB1 191415Z 33006KT 02/M08 A3037 RMK A01 T00191080  RH  048%=      5-min Rain = 0
KSB1 191416Z 33006KT 02/M08 A3037 RMK A01 T00201080  RH  048%=      5-min Rain = 0
KSB1 191417Z 33006KT 02/M08 A3037 RMK A01 T00211079  RH  048%=      5-min Rain = 0
KSB1 191418Z 33006KT 02/M08 A3037 RMK A01 T00221079  RH  047%=      5-min Rain = 0
KSB1 191419Z 33006KT 02/M08 A3037 RMK A01 T00241079  RH  047%=      5-min Rain = 0
KSB1 191420Z 33007KT 02/M08 A3037 RMK A01 T00241079  RH  047%=      5-min Rain = 0
KSB1 191421Z 33007KT 03/M08 A3037 RMK A01 T00261078  RH  046%=      5-min Rain = 0
KSB1 191422Z 33007KT 03/M08 A3037 RMK A01 T00271078  RH  046%=      5-min Rain = 0
KSB1 191423Z 33006KT 03/M08 A3037 RMK A01 T00281078  RH  046%=      5-min Rain = 0
KSB1 191424Z 33006KT 03/M08 A3037 RMK A01 T00281078  RH  045%=      5-min Rain = 0
KSB1 191425Z 33006KT 03/M08 A3037 RMK A01 T00291078  RH  045%=      5-min Rain = 0
KSB1 191426Z 33006KT 03/M08 A3037 RMK A01 T00301077  RH  045%=      5-min Rain = 0
KSB1 191427Z 33006KT 03/M08 A3037 RMK A01 T00311076  RH  045%=      5-min Rain = 0
KSB1 191428Z 33007KT 03/M08 A3037 RMK A01 T00321077  RH  045%=      5-min Rain = 0
KSB1 191429Z 33005KT 03/M08 A3037 RMK A01 T00331076  RH  045%=      5-min Rain = 0
KSB1 191430Z 33005KT 03/M08 A3037 RMK A01 T00341075  RH  045%=      5-min Rain = 0
KSB1 191431Z 34005KT 04/M08 A3037 RMK A01 T00351075  RH  045%=      5-min Rain = 0
KSB1 191432Z 34006KT 04/M07 A3037 RMK A01 T00361074  RH  044%=      5-min Rain = 0
KSB1 191433Z 34006KT 04/M07 A3038 RMK A01 T00361074  RH  044%=      5-min Rain = 0
KSB1 191434Z 35007KT 04/M07 A3038 RMK A01 T00371073  RH  044%=      5-min Rain = 0
KSB1 191435Z 35006KT 04/M07 A3038 RMK A01 T00381072  RH  044%=      5-min Rain = 0
KSB1 191436Z 34005KT 04/M07 A3038 RMK A01 T00391072  RH  044%=      5-min Rain = 0
KSB1 191437Z 34006KT 04/M07 A3038 RMK A01 T00401072  RH  044%=      5-min Rain = 0
KSB1 191438Z 35005KT 04/M07 A3038 RMK A01 T00401072  RH  044%=      5-min Rain = 0
KSB1 191439Z 35005KT 04/M07 A3038 RMK A01 T00411071  RH  044%=      5-min Rain = 0
KSB1 191440Z 35005KT 04/M07 A3038 RMK A01 T00421071  RH  044%=      5-min Rain = 0
KSB1 191441Z 35005KT 04/M07 A3038 RMK A01 T00421071  RH  044%=      5-min Rain = 0
KSB1 191442Z 35005KT 04/M07 A3038 RMK A01 T00431071  RH  043%=      5-min Rain = 0
KSB1 191443Z 35005KT 04/M07 A3038 RMK A01 T00441070  RH  043%=      5-min Rain = 0
KSB1 191444Z 35006KT 04/M07 A3038 RMK A01 T00441071  RH  043%=      5-min Rain = 0
KSB1 191445Z 34006KT 04/M07 A3038 RMK A01 T00441070  RH  043%=      5-min Rain = 0
KSB1 191446Z 34006KT 05/M07 A3038 RMK A01 T00451071  RH  043%=      5-min Rain = 0
KSB1 191447Z 34006KT 05/M07 A3038 RMK A01 T00451070  RH  043%=      5-min Rain = 0
KSB1 191448Z 34006KT 05/M07 A3038 RMK A01 T00461070  RH  043%=      5-min Rain = 0
KSB1 191449Z 34006KT 05/M07 A3038 RMK A01 T00461070  RH  043%=      5-min Rain = 0
KSB1 191450Z 34005KT 05/M07 A3038 RMK A01 T00471070  RH  043%=      5-min Rain = 0
KSB1 191451Z 34006KT 05/M07 A3038 RMK A01 T00471069  RH  043%=      5-min Rain = 0
KSB1 191452Z 34005KT 05/M07 A3038 RMK A01 T00481069  RH  042%=      5-min Rain = 0
KSB1 191453Z 34005KT 05/M07 A3038 RMK A01 T00491069  RH  042%=      5-min Rain = 0
KSB1 191454Z 34006KT 05/M07 A3038 RMK A01 T00491069  RH  042%=      5-min Rain = 0
KSB1 191455Z 34005KT 05/M07 A3038 RMK A01 T00501069  RH  042%=      5-min Rain = 0
KSB1 191456Z 34005KT 05/M07 A3038 RMK A01 T00501069  RH  042%=      5-min Rain = 0
KSB1 191457Z 34004KT 05/M07 A3038 RMK A01 T00511068  RH  042%=      5-min Rain = 0
KSB1 191458Z 34004KT 05/M07 A3038 RMK A01 T00521067  RH  042%=      5-min Rain = 0
KSB1 191459Z 33005KT 05/M07 A3038 RMK A01 T00531067  RH  042%=      5-min Rain = 0
KSB1 191500Z 33005KT 05/M07 A3038 RMK A01 T00531068  RH  041%=      5-min Rain = 0
KSB1 191501Z 33004KT 05/M07 A3038 RMK A01 T00531068  RH  041%=      5-min Rain = 0
KSB1 191502Z 33004KT 05/M07 A3039 RMK A01 T00541067  RH  041%=      5-min Rain = 0
KSB1 191503Z 32002KT 06/M07 A3039 RMK A01 T00551067  RH  041%=      5-min Rain = 0
KSB1 191504Z 14005KT 06/M07 A3039 RMK A01 T00551069  RH  041%=      5-min Rain = 0
KSB1 191505Z 14005KT 05/M07 A3039 RMK A01 T00521072  RH  040%=      5-min Rain = 0
KSB1 191506Z 15004KT 05/M07 A3039 RMK A01 T00501073  RH  041%=      5-min Rain = 0
KSB1 191507Z 15002KT 05/M07 A3039 RMK A01 T00501071  RH  041%=      5-min Rain = 0
KSB1 191508Z 15000KT 05/M07 A3039 RMK A01 T00511070  RH  041%=      5-min Rain = 0
KSB1 191509Z 00000KT 05/M07 A3039 RMK A01 T00531069  RH  041%=      5-min Rain = 0
KSB1 191510Z 00000KT 06/M07 A3039 RMK A01 T00561068  RH  040%=      5-min Rain = 0
KSB1 191511Z 00000KT 06/M07 A3039 RMK A01 T00571068  RH  040%=      5-min Rain = 0
KSB1 191512Z 00000KT 06/M07 A3039 RMK A01 T00581068  RH  040%=      5-min Rain = 0
KSB1 191513Z 00000KT 06/M07 A3039 RMK A01 T00601068  RH  039%=      5-min Rain = 0
KSB1 191514Z 00000KT 06/M07 A3039 RMK A01 T00621069  RH  039%=      5-min Rain = 0
KSB1 191515Z 03000KT 06/M07 A3039 RMK A01 T00621071  RH  038%=      5-min Rain = 0
KSB1 191516Z 01001KT 06/M07 A3039 RMK A01 T00621071  RH  038%=      5-min Rain = 0
KSB1 191517Z 00001KT 06/M07 A3039 RMK A01 T00621069  RH  038%=      5-min Rain = 0
KSB1 191518Z 02001KT 06/M07 A3039 RMK A01 T00611068  RH  039%=      5-min Rain = 0
KSB1 191519Z 02000KT 06/M07 A3039 RMK A01 T00591068  RH  040%=      5-min Rain = 0
KSB1 191520Z 02000KT 06/M07 A3039 RMK A01 T00591067  RH  040%=      5-min Rain = 0
KSB1 191521Z 05000KT 06/M07 A304 RMK A01 T00591067  RH  040%=      5-min Rain = 0
KSB1 191522Z 04001KT 06/M07 A304 RMK A01 T00591067  RH  040%=      5-min Rain = 0
KSB1 191523Z 03002KT 06/M07 A304 RMK A01 T00591067  RH  040%=      5-min Rain = 0
KSB1 191524Z 04002KT 06/M07 A304 RMK A01 T00591067  RH  040%=      5-min Rain = 0
KSB1 191525Z 04002KT 06/M07 A304 RMK A01 T00591066  RH  040%=      5-min Rain = 0
KSB1 191526Z 04001KT 06/M07 A304 RMK A01 T00591067  RH  040%=      5-min Rain = 0
KSB1 191527Z 06000KT 06/M07 A304 RMK A01 T00581068  RH  040%=      5-min Rain = 0
KSB1 191528Z 04001KT 06/M07 A304 RMK A01 T00581067  RH  040%=      5-min Rain = 0
KSB1 191529Z 05001KT 06/M07 A304 RMK A01 T00591067  RH  040%=      5-min Rain = 0
KSB1 191530Z 07000KT 06/M07 A304 RMK A01 T00591067  RH  040%=      5-min Rain = 0
KSB1 191531Z 12000KT 06/M07 A304 RMK A01 T00601066  RH  040%=      5-min Rain = 0
KSB1 191532Z 12001KT 06/M07 A304 RMK A01 T00611066  RH  040%=      5-min Rain = 0
KSB1 191533Z 11001KT 06/M07 A304 RMK A01 T00621066  RH  039%=      5-min Rain = 0
KSB1 191534Z 11000KT 06/M07 A304 RMK A01 T00641066  RH  039%=      5-min Rain = 0
KSB1 191535Z 13001KT 07/M06 A304 RMK A01 T00661064  RH  039%=      5-min Rain = 0
KSB1 191536Z 11001KT 07/M07 A304 RMK A01 T00671065  RH  039%=      5-min Rain = 0
KSB1 191537Z 12000KT 07/M07 A3041 RMK A01 T00671065  RH  038%=      5-min Rain = 0
KSB1 191538Z 00000KT 07/M07 A3041 RMK A01 T00661066  RH  038%=      5-min Rain = 0
KSB1 191539Z 09001KT 07/M06 A3041 RMK A01 T00681064  RH  038%=      5-min Rain = 0
KSB1 191540Z 12002KT 07/M06 A3041 RMK A01 T00701063  RH  038%=      5-min Rain = 0
KSB1 191541Z 14002KT 07/M06 A3041 RMK A01 T00711063  RH  038%=      5-min Rain = 0
KSB1 191542Z 12002KT 07/M06 A3041 RMK A01 T00711064  RH  037%=      5-min Rain = 0
KSB1 191543Z 11001KT 07/M06 A3041 RMK A01 T00731064  RH  037%=      5-min Rain = 0
KSB1 191544Z 10002KT 07/M07 A3041 RMK A01 T00741065  RH  037%=      5-min Rain = 0
KSB1 191545Z 11001KT 07/M07 A3041 RMK A01 T00711068  RH  036%=      5-min Rain = 0
KSB1 191546Z 12001KT 07/M07 A3041 RMK A01 T00701067  RH  037%=      5-min Rain = 0
KSB1 191547Z 12003KT 07/M07 A3041 RMK A01 T00711066  RH  037%=      5-min Rain = 0
KSB1 191548Z 08003KT 07/M07 A3041 RMK A01 T00711066  RH  037%=      5-min Rain = 0
KSB1 191549Z 04004KT 07/M07 A3041 RMK A01 T00701067  RH  037%=      5-min Rain = 0
KSB1 191550Z 04004KT 07/M07 A3041 RMK A01 T00671068  RH  038%=      5-min Rain = 0
KSB1 191551Z 05003KT 07/M07 A3041 RMK A01 T00651068  RH  038%=      5-min Rain = 0
KSB1 191552Z 08005KT 07/M07 A3041 RMK A01 T00651067  RH  038%=      5-min Rain = 0
KSB1 191553Z 09003KT 07/M07 A3041 RMK A01 T00651067  RH  038%=      5-min Rain = 0
KSB1 191554Z 08003KT 07/M07 A3041 RMK A01 T00651068  RH  038%=      5-min Rain = 0
KSB1 191555Z 07003KT 07/M07 A3041 RMK A01 T00661066  RH  038%=      5-min Rain = 0
KSB1 191556Z 07001KT 07/M07 A3041 RMK A01 T00671068  RH  038%=      5-min Rain = 0
KSB1 191557Z 08004KT 07/M07 A3041 RMK A01 T00661067  RH  038%=      5-min Rain = 0
KSB1 191558Z 08004KT 07/M07 A3041 RMK A01 T00661067  RH  038%=      5-min Rain = 0
KSB1 191559Z 08003KT 07/M07 A3041 RMK A01 T00661068  RH  038%=      5-min Rain = 0
KSB1 191600Z 08003KT 07/M07 A3041 RMK A01 T00651067  RH  038%=      5-min Rain = 0
KSB1 191601Z 07003KT 07/M07 A3041 RMK A01 T00661066  RH  038%=      5-min Rain = 0
KSB1 191602Z 09002KT 07/M07 A3041 RMK A01 T00681066  RH  038%=      5-min Rain = 0
KSB1 191603Z 12002KT 07/M07 A3041 RMK A01 T00691066  RH  038%=      5-min Rain = 0
KSB1 191604Z 13002KT 07/M07 A3042 RMK A01 T00721065  RH  037%=      5-min Rain = 0
KSB1 191605Z 13003KT 07/M06 A3042 RMK A01 T00741064  RH  037%=      5-min Rain = 0
KSB1 191606Z 11003KT 07/M07 A3042 RMK A01 T00741067  RH  036%=      5-min Rain = 0
KSB1 191607Z 10005KT 07/M07 A3042 RMK A01 T00731067  RH  036%=      5-min Rain = 0
KSB1 191608Z 10004KT 07/M07 A3042 RMK A01 T00701069  RH  036%=      5-min Rain = 0
KSB1 191609Z 10003KT 07/M07 A3042 RMK A01 T00681068  RH  037%=      5-min Rain = 0
KSB1 191610Z 12002KT 07/M07 A3042 RMK A01 T00691067  RH  037%=      5-min Rain = 0
KSB1 191611Z 13003KT 07/M07 A3042 RMK A01 T00701067  RH  037%=      5-min Rain = 0
KSB1 191612Z 14004KT 07/M07 A3042 RMK A01 T00701067  RH  037%=      5-min Rain = 0
KSB1 191613Z 15005KT 07/M07 A3042 RMK A01 T00701068  RH  037%=      5-min Rain = 0
KSB1 191614Z 14004KT 07/M07 A3042 RMK A01 T00721067  RH  037%=      5-min Rain = 0
KSB1 191615Z 15006KT 07/M07 A3042 RMK A01 T00721068  RH  036%=      5-min Rain = 0
KSB1 191616Z 15007KT 07/M07 A3042 RMK A01 T00721067  RH  037%=      5-min Rain = 0
KSB1 191617Z 15005KT 07/M07 A3042 RMK A01 T00721068  RH  036%=      5-min Rain = 0
KSB1 191618Z 15005KT 07/M07 A3042 RMK A01 T00721067  RH  036%=      5-min Rain = 0
KSB1 191619Z 14004KT 07/M07 A3042 RMK A01 T00721067  RH  036%=      5-min Rain = 0
KSB1 191620Z 14006KT 07/M07 A3042 RMK A01 T00741065  RH  036%=      5-min Rain = 0
KSB1 191621Z 14004KT 08/M07 A3042 RMK A01 T00751067  RH  036%=      5-min Rain = 0
KSB1 191622Z 13005KT 08/M07 A3042 RMK A01 T00751067  RH  036%=      5-min Rain = 0
KSB1 191623Z 12004KT 07/M07 A3042 RMK A01 T00741068  RH  036%=      5-min Rain = 0
KSB1 191624Z 12005KT 07/M07 A3042 RMK A01 T00731069  RH  036%=      5-min Rain = 0
KSB1 191625Z 14005KT 07/M07 A3042 RMK A01 T00721068  RH  036%=      5-min Rain = 0
KSB1 191626Z 15004KT 07/M07 A3042 RMK A01 T00721068  RH  036%=      5-min Rain = 0
KSB1 191627Z 15004KT 07/M07 A3042 RMK A01 T00731068  RH  036%=      5-min Rain = 0
KSB1 191628Z 13004KT 08/M07 A3042 RMK A01 T00751067  RH  036%=      5-min Rain = 0
KSB1 191629Z 15005KT 08/M07 A3042 RMK A01 T00751068  RH  035%=      5-min Rain = 0
KSB1 191630Z 16004KT 08/M07 A3042 RMK A01 T00751069  RH  035%=      5-min Rain = 0
KSB1 191631Z 14005KT 08/M07 A3042 RMK A01 T00751069  RH  035%=      5-min Rain = 0
KSB1 191632Z 14006KT 08/M07 A3042 RMK A01 T00761068  RH  035%=      5-min Rain = 0
KSB1 191633Z 13004KT 08/M07 A3043 RMK A01 T00761068  RH  035%=      5-min Rain = 0
KSB1 191634Z 13005KT 08/M07 A3043 RMK A01 T00761068  RH  035%=      5-min Rain = 0
KSB1 191635Z 14005KT 08/M07 A3043 RMK A01 T00761069  RH  035%=      5-min Rain = 0
KSB1 191636Z 14004KT 08/M07 A3043 RMK A01 T00751069  RH  035%=      5-min Rain = 0
KSB1 191637Z 15005KT 08/M07 A3042 RMK A01 T00761068  RH  035%=      5-min Rain = 0
KSB1 191638Z 16006KT 08/M07 A3042 RMK A01 T00771067  RH  035%=      5-min Rain = 0
KSB1 191639Z 15005KT 08/M07 A3042 RMK A01 T00781065  RH  035%=      5-min Rain = 0
KSB1 191640Z 16004KT 08/M07 A3042 RMK A01 T00801065  RH  035%=      5-min Rain = 0
KSB1 191641Z 14006KT 08/M07 A3042 RMK A01 T00811065  RH  035%=      5-min Rain = 0
KSB1 191642Z 14006KT 08/M07 A3042 RMK A01 T00811066  RH  035%=      5-min Rain = 0
KSB1 191643Z 13004KT 08/M07 A3042 RMK A01 T00811066  RH  035%=      5-min Rain = 0
KSB1 191644Z 16004KT 08/M07 A3042 RMK A01 T00821065  RH  035%=      5-min Rain = 0
KSB1 191645Z 14006KT 08/M06 A3042 RMK A01 T00831064  RH  035%=      5-min Rain = 0
KSB1 191646Z 13006KT 08/M07 A3042 RMK A01 T00831066  RH  034%=      5-min Rain = 0
KSB1 191647Z 12005KT 08/M07 A3042 RMK A01 T00811066  RH  034%=      5-min Rain = 0
KSB1 191648Z 11005KT 08/M07 A3042 RMK A01 T00811065  RH  035%=      5-min Rain = 0
KSB1 191649Z 14004KT 08/M07 A3042 RMK A01 T00811066  RH  035%=      5-min Rain = 0
KSB1 191650Z 16005KT 08/M07 A3042 RMK A01 T00801065  RH  035%=      5-min Rain = 0
KSB1 191651Z 15006KT 08/M06 A3042 RMK A01 T00821064  RH  035%=      5-min Rain = 0
KSB1 191652Z 16006KT 08/M07 A3042 RMK A01 T00821065  RH  034%=      5-min Rain = 0
KSB1 191653Z 18004KT 08/M07 A3042 RMK A01 T00821065  RH  034%=      5-min Rain = 0
KSB1 191654Z 16006KT 08/M07 A3042 RMK A01 T00811065  RH  035%=      5-min Rain = 0
KSB1 191655Z 14006KT 08/M06 A3042 RMK A01 T00821064  RH  035%=      5-min Rain = 0
KSB1 191656Z 14005KT 08/M06 A3042 RMK A01 T00831064  RH  035%=      5-min Rain = 0
KSB1 191657Z 15006KT 09/M06 A3042 RMK A01 T00861062  RH  035%=      5-min Rain = 0
KSB1 191658Z 14005KT 09/M06 A3042 RMK A01 T00861064  RH  034%=      5-min Rain = 0
KSB1 191659Z 14003KT 08/M07 A3042 RMK A01 T00831067  RH  034%=      5-min Rain = 0
KSB1 191700Z 12003KT 08/M07 A3042 RMK A01 T00831065  RH  034%=      5-min Rain = 0
KSB1 191701Z 14004KT 08/M06 A3042 RMK A01 T00841064  RH  034%=      5-min Rain = 0
KSB1 191702Z 14004KT 09/M06 A3042 RMK A01 T00851064  RH  034%=      5-min Rain = 0
KSB1 191703Z 15004KT 09/M06 A3042 RMK A01 T00871062  RH  034%=      5-min Rain = 0
KSB1 191704Z 19004KT 09/M06 A3042 RMK A01 T00891062  RH  034%=      5-min Rain = 0
KSB1 191705Z 17005KT 09/M06 A3042 RMK A01 T00891063  RH  034%=      5-min Rain = 0
KSB1 191706Z 13005KT 09/M06 A3042 RMK A01 T00891061  RH  034%=      5-min Rain = 0
KSB1 191707Z 13004KT 09/M06 A3042 RMK A01 T00881064  RH  033%=      5-min Rain = 0
KSB1 191708Z 13004KT 09/M06 A3042 RMK A01 T00861064  RH  034%=      5-min Rain = 0
KSB1 191709Z 11005KT 09/M06 A3042 RMK A01 T00851064  RH  034%=      5-min Rain = 0
KSB1 191710Z 11003KT 08/M06 A3042 RMK A01 T00841064  RH  034%=      5-min Rain = 0
KSB1 191711Z 13004KT 09/M06 A3042 RMK A01 T00871061  RH  035%=      5-min Rain = 0
KSB1 191712Z 12004KT 09/M06 A3042 RMK A01 T00881064  RH  033%=      5-min Rain = 0
KSB1 191713Z 11007KT 09/M07 A3042 RMK A01 T00871065  RH  033%=      5-min Rain = 0
KSB1 191714Z 12006KT 09/M07 A3042 RMK A01 T00861066  RH  034%=      5-min Rain = 0
KSB1 191715Z 12004KT 08/M07 A3042 RMK A01 T00841065  RH  034%=      5-min Rain = 0
KSB1 191716Z 18004KT 09/M06 A3042 RMK A01 T00851063  RH  034%=      5-min Rain = 0
KSB1 191717Z 18005KT 09/M06 A3042 RMK A01 T00871063  RH  034%=      5-min Rain = 0
KSB1 191718Z 13006KT 09/M06 A3042 RMK A01 T00871064  RH  034%=      5-min Rain = 0
KSB1 191719Z 13005KT 09/M07 A3042 RMK A01 T00861065  RH  034%=      5-min Rain = 0
KSB1 191720Z 12003KT 09/M06 A3042 RMK A01 T00861064  RH  034%=      5-min Rain = 0
KSB1 191721Z 14005KT 09/M06 A3042 RMK A01 T00891061  RH  034%=      5-min Rain = 0
KSB1 191722Z 13006KT 09/M06 A3042 RMK A01 T00901063  RH  033%=      5-min Rain = 0
KSB1 191723Z 12004KT 09/M07 A3042 RMK A01 T00881065  RH  033%=      5-min Rain = 0
KSB1 191724Z 12001KT 09/M07 A3042 RMK A01 T00861065  RH  034%=      5-min Rain = 0
KSB1 191725Z 13003KT 09/M07 A3042 RMK A01 T00861065  RH  034%=      5-min Rain = 0
KSB1 191726Z 12005KT 09/M06 A3042 RMK A01 T00871064  RH  034%=      5-min Rain = 0
KSB1 191727Z 12003KT 09/M07 A3042 RMK A01 T00871065  RH  033%=      5-min Rain = 0
KSB1 191728Z 14002KT 09/M06 A3042 RMK A01 T00871064  RH  034%=      5-min Rain = 0
KSB1 191729Z 16002KT 09/M06 A3042 RMK A01 T00901063  RH  034%=      5-min Rain = 0
KSB1 191730Z 15001KT 09/M06 A3042 RMK A01 T00921062  RH  033%=      5-min Rain = 0
KSB1 191731Z 11001KT 09/M06 A3042 RMK A01 T00931062  RH  033%=      5-min Rain = 0
KSB1 191732Z 13006KT 09/M06 A3042 RMK A01 T00931062  RH  033%=      5-min Rain = 0
KSB1 191733Z 14006KT 09/M06 A3042 RMK A01 T00941064  RH  032%=      5-min Rain = 0
KSB1 191734Z 16007KT 09/M06 A3042 RMK A01 T00931064  RH  033%=      5-min Rain = 0
KSB1 191735Z 15006KT 09/M06 A3042 RMK A01 T00911064  RH  033%=      5-min Rain = 0
KSB1 191736Z 16004KT 09/M06 A3042 RMK A01 T00911064  RH  033%=      5-min Rain = 0
KSB1 191737Z 17002KT 09/M07 A3042 RMK A01 T00911065  RH  033%=      5-min Rain = 0
KSB1 191738Z 18000KT 09/M06 A3042 RMK A01 T00921064  RH  033%=      5-min Rain = 0
KSB1 191739Z 14005G10KT 10/M06 A3042 RMK A01 T00951061  RH  033%=      5-min Rain = 0
KSB1 191740Z 17008KT 10/M06 A3041 RMK A01 T00961061  RH  032%=      5-min Rain = 0
KSB1 191741Z 18005KT 09/M06 A3042 RMK A01 T00941063  RH  032%=      5-min Rain = 0
KSB1 191742Z 18005KT 09/M06 A3042 RMK A01 T00931063  RH  032%=      5-min Rain = 0
KSB1 191743Z 17004KT 09/M06 A3042 RMK A01 T00921064  RH  033%=      5-min Rain = 0
KSB1 191744Z 15005KT 09/M07 A3042 RMK A01 T00921065  RH  032%=      5-min Rain = 0
KSB1 191745Z 17006KT 09/M06 A3042 RMK A01 T00921064  RH  033%=      5-min Rain = 0
KSB1 191746Z 17004KT 09/M06 A3042 RMK A01 T00921064  RH  032%=      5-min Rain = 0
KSB1 191747Z 17003KT 09/M07 A3042 RMK A01 T00911065  RH  033%=      5-min Rain = 0
KSB1 191748Z 16004KT 09/M06 A3042 RMK A01 T00921063  RH  033%=      5-min Rain = 0
KSB1 191749Z 21005KT 09/M06 A3042 RMK A01 T00941062  RH  033%=      5-min Rain = 0
KSB1 191750Z 20004KT 09/M06 A3042 RMK A01 T00941064  RH  032%=      5-min Rain = 0
KSB1 191751Z 21009KT 09/M06 A3042 RMK A01 T00931064  RH  032%=      5-min Rain = 0
KSB1 191752Z 20008KT 09/M06 A3042 RMK A01 T00941064  RH  032%=      5-min Rain = 0
KSB1 191753Z 20008KT 10/M06 A3042 RMK A01 T00971062  RH  032%=      5-min Rain = 0
KSB1 191754Z 19005KT 10/M06 A3042 RMK A01 T00961064  RH  032%=      5-min Rain = 0
KSB1 191755Z 16004KT 10/M07 A3042 RMK A01 T00951066  RH  032%=      5-min Rain = 0
KSB1 191756Z 17004KT 09/M07 A3042 RMK A01 T00931066  RH  032%=      5-min Rain = 0
KSB1 191757Z 21008KT 09/M07 A3041 RMK A01 T00931065  RH  032%=      5-min Rain = 0
KSB1 191758Z 21009KT 10/M06 A3041 RMK A01 T00961063  RH  032%=      5-min Rain = 0
KSB1 191759Z 22007KT 09/M07 A3041 RMK A01 T00931066  RH  032%=      5-min Rain = 0
KSB1 191800Z 21006KT 09/M07 A3042 RMK A01 T00921066  RH  032%=      5-min Rain = 0
KSB1 191801Z 19007KT 09/M06 A3042 RMK A01 T00941062  RH  033%=      5-min Rain = 0
KSB1 191802Z 19007KT 10/M06 A3042 RMK A01 T00961064  RH  032%=      5-min Rain = 0
KSB1 191803Z 20005KT 09/M07 A3042 RMK A01 T00941066  RH  032%=      5-min Rain = 0
KSB1 191804Z 22004KT 10/M07 A3042 RMK A01 T00951066  RH  032%=      5-min Rain = 0
KSB1 191805Z 21008KT 10/M07 A3042 RMK A01 T00951066  RH  031%=      5-min Rain = 0
KSB1 191806Z 20008KT 10/M07 A3042 RMK A01 T00951067  RH  031%=      5-min Rain = 0
KSB1 191807Z 21008KT 10/M07 A3042 RMK A01 T00961066  RH  031%=      5-min Rain = 0
KSB1 191808Z 22005KT 10/M07 A3042 RMK A01 T00961068  RH  031%=      5-min Rain = 0
KSB1 191809Z 23005KT 09/M07 A3042 RMK A01 T00931069  RH  031%=      5-min Rain = 0
KSB1 191810Z 22003KT 09/M07 A3042 RMK A01 T00941067  RH  032%=      5-min Rain = 0
KSB1 191811Z 15006KT 09/M07 A3042 RMK A01 T00941066  RH  032%=      5-min Rain = 0
KSB1 191812Z 16007KT 10/M07 A3041 RMK A01 T00961066  RH  031%=      5-min Rain = 0
KSB1 191813Z 19007KT 10/M07 A3041 RMK A01 T00971066  RH  031%=      5-min Rain = 0
KSB1 191814Z 16008KT 10/M07 A3041 RMK A01 T00971066  RH  031%=      5-min Rain = 0
KSB1 191815Z 17008KT 10/M07 A3041 RMK A01 T00981067  RH  031%=      5-min Rain = 0
KSB1 191816Z 17008KT 10/M07 A3041 RMK A01 T00971066  RH  031%=      5-min Rain = 0
KSB1 191817Z 16006KT 10/M07 A3041 RMK A01 T00961068  RH  031%=      5-min Rain = 0
KSB1 191818Z 15006KT 10/M07 A3041 RMK A01 T00951067  RH  031%=      5-min Rain = 0
KSB1 191819Z 15005KT 10/M06 A3041 RMK A01 T00991064  RH  031%=      5-min Rain = 0
KSB1 191820Z 15004KT 10/M07 A3041 RMK A01 T01011065  RH  031%=      5-min Rain = 0
KSB1 191821Z 20005KT 10/M06 A3041 RMK A01 T01021064  RH  030%=      5-min Rain = 0
KSB1 191822Z 20010KT 10/M07 A3041 RMK A01 T01021066  RH  030%=      5-min Rain = 0
KSB1 191823Z 21007KT 10/M07 A3041 RMK A01 T01011066  RH  030%=      5-min Rain = 0
KSB1 191824Z 21005KT 10/M07 A3041 RMK A01 T01001067  RH  030%=      5-min Rain = 0
KSB1 191825Z 23003KT 10/M07 A3041 RMK A01 T00971069  RH  030%=      5-min Rain = 0
KSB1 191826Z 19003KT 10/M07 A3041 RMK A01 T00951070  RH  031%=      5-min Rain = 0
KSB1 191827Z 17006KT 10/M06 A3041 RMK A01 T00981064  RH  031%=      5-min Rain = 0
KSB1 191828Z 19007KT 10/M06 A3041 RMK A01 T01011064  RH  031%=      5-min Rain = 0
KSB1 191829Z 21007KT 10/M06 A3041 RMK A01 T01041063  RH  030%=      5-min Rain = 0
KSB1 191830Z 22009KT 11/M07 A3041 RMK A01 T01051065  RH  030%=      5-min Rain = 0
KSB1 191831Z 22005KT 10/M07 A3041 RMK A01 T01001070  RH  029%=      5-min Rain = 0
KSB1 191832Z 18004KT 10/M07 A3041 RMK A01 T00971069  RH  030%=      5-min Rain = 0
KSB1 191833Z 15006KT 10/M07 A3041 RMK A01 T00981067  RH  031%=      5-min Rain = 0
KSB1 191834Z 15007KT 10/M07 A3041 RMK A01 T01021065  RH  030%=      5-min Rain = 0
KSB1 191835Z 16008KT 11/M07 A3041 RMK A01 T01051065  RH  030%=      5-min Rain = 0
KSB1 191836Z 18011KT 11/M07 A304 RMK A01 T01061065  RH  029%=      5-min Rain = 0
KSB1 191837Z 18011KT 11/M07 A304 RMK A01 T01061067  RH  029%=      5-min Rain = 0
KSB1 191838Z 19009KT 11/M07 A304 RMK A01 T01051067  RH  029%=      5-min Rain = 0
KSB1 191839Z 19008KT 10/M07 A304 RMK A01 T01031070  RH  029%=      5-min Rain = 0
KSB1 191840Z 20004KT 10/M07 A304 RMK A01 T00991071  RH  030%=      5-min Rain = 0
KSB1 191841Z 21004KT 10/M07 A304 RMK A01 T00981070  RH  030%=      5-min Rain = 0
KSB1 191842Z 20005KT 10/M07 A304 RMK A01 T00991069  RH  030%=      5-min Rain = 0
KSB1 191843Z 18009KT 10/M07 A304 RMK A01 T01031066  RH  030%=      5-min Rain = 0
KSB1 191844Z 18010KT 11/M07 A304 RMK A01 T01051067  RH  029%=      5-min Rain = 0
KSB1 191845Z 20008KT 10/M07 A304 RMK A01 T01041069  RH  029%=      5-min Rain = 0
KSB1 191846Z 19006KT 10/M07 A304 RMK A01 T01021069  RH  029%=      5-min Rain = 0
KSB1 191847Z 21005KT 10/M07 A304 RMK A01 T01021068  RH  029%=      5-min Rain = 0
KSB1 191848Z 21004KT 10/M07 A304 RMK A01 T01021070  RH  029%=      5-min Rain = 0
KSB1 191849Z 18003KT 10/M07 A304 RMK A01 T00991070  RH  030%=      5-min Rain = 0
KSB1 191850Z 18008KT 10/M07 A304 RMK A01 T01001069  RH  030%=      5-min Rain = 0
KSB1 191851Z 18006KT 10/M07 A3039 RMK A01 T01011069  RH  030%=      5-min Rain = 0
KSB1 191852Z 16005KT 10/M07 A3039 RMK A01 T01031068  RH  029%=      5-min Rain = 0
KSB1 191853Z 20005KT 11/M07 A3039 RMK A01 T01051067  RH  029%=      5-min Rain = 0
KSB1 191854Z 20008KT 10/M07 A3039 RMK A01 T01041069  RH  029%=      5-min Rain = 0
KSB1 191855Z 20008KT 10/M07 A3039 RMK A01 T01041068  RH  029%=      5-min Rain = 0
KSB1 191856Z 19007KT 11/M07 A3039 RMK A01 T01051068  RH  029%=      5-min Rain = 0
KSB1 191857Z 19008KT 11/M07 A3039 RMK A01 T01061068  RH  029%=      5-min Rain = 0
KSB1 191858Z 18006KT 10/M07 A3039 RMK A01 T01041069  RH  029%=      5-min Rain = 0
KSB1 191859Z 17006KT 10/M07 A3039 RMK A01 T01041069  RH  029%=      5-min Rain = 0
KSB1 191900Z 15004KT 10/M07 A3039 RMK A01 T01031071  RH  029%=      5-min Rain = 0
KSB1 191901Z 13003KT 10/M07 A3039 RMK A01 T01021071  RH  029%=      5-min Rain = 0
KSB1 191902Z 14002KT 10/M07 A3039 RMK A01 T01021071  RH  029%=      5-min Rain = 0
KSB1 191903Z 14003KT 10/M07 A3039 RMK A01 T01041070  RH  029%=      5-min Rain = 0
KSB1 191904Z 16006KT 11/M07 A3039 RMK A01 T01071066  RH  029%=      5-min Rain = 0
KSB1 191905Z 15007KT 11/M07 A3039 RMK A01 T01111066  RH  028%=      5-min Rain = 0
KSB1 191906Z 18006KT 11/M07 A3039 RMK A01 T01121067  RH  028%=      5-min Rain = 0
KSB1 191907Z 19006KT 11/M07 A3038 RMK A01 T01121067  RH  028%=      5-min Rain = 0
KSB1 191908Z 19005KT 11/M07 A3038 RMK A01 T01081071  RH  028%=      5-min Rain = 0
KSB1 191909Z 19006KT 11/M07 A3038 RMK A01 T01061069  RH  029%=      5-min Rain = 0
KSB1 191910Z 17004KT 11/M07 A3038 RMK A01 T01071068  RH  029%=      5-min Rain = 0
KSB1 191911Z 16004KT 11/M07 A3038 RMK A01 T01081069  RH  028%=      5-min Rain = 0
KSB1 191912Z 16004KT 11/M07 A3038 RMK A01 T01081069  RH  028%=      5-min Rain = 0
KSB1 191913Z 15002KT 11/M07 A3038 RMK A01 T01091068  RH  028%=      5-min Rain = 0
KSB1 191914Z 21003KT 11/M07 A3038 RMK A01 T01101068  RH  028%=      5-min Rain = 0
KSB1 191915Z 22006KT 11/M07 A3038 RMK A01 T01101067  RH  028%=      5-min Rain = 0
KSB1 191916Z 22005KT 11/M07 A3038 RMK A01 T01101068  RH  028%=      5-min Rain = 0
KSB1 191917Z 20005KT 11/M07 A3038 RMK A01 T01081069  RH  028%=      5-min Rain = 0
KSB1 191918Z 19005KT 11/M07 A3038 RMK A01 T01081067  RH  029%=      5-min Rain = 0
KSB1 191919Z 18005KT 11/M07 A3038 RMK A01 T01101067  RH  028%=      5-min Rain = 0
KSB1 191920Z 23006KT 11/M07 A3038 RMK A01 T01111067  RH  028%=      5-min Rain = 0
KSB1 191921Z 25006KT 11/M07 A3038 RMK A01 T01141068  RH  027%=      5-min Rain = 0
KSB1 191922Z 25005KT 12/M07 A3038 RMK A01 T01151069  RH  027%=      5-min Rain = 0
KSB1 191923Z 24006KT 12/M07 A3038 RMK A01 T01171069  RH  027%=      5-min Rain = 0
KSB1 191924Z 25007KT 12/M07 A3037 RMK A01 T01171074  RH  025%=      5-min Rain = 0
KSB1 191925Z 26006KT 11/M08 A3037 RMK A01 T01141078  RH  025%=      5-min Rain = 0
KSB1 191926Z 29003KT 11/M08 A3037 RMK A01 T01131078  RH  025%=      5-min Rain = 0
KSB1 191927Z 22010KT 11/M07 A3037 RMK A01 T01131074  RH  026%=      5-min Rain = 0
KSB1 191928Z 23010KT 12/M07 A3037 RMK A01 T01151072  RH  026%=      5-min Rain = 0
KSB1 191929Z 23006KT 11/M07 A3037 RMK A01 T01111073  RH  027%=      5-min Rain = 0
KSB1 191930Z 22006KT 11/M07 A3037 RMK A01 T01121071  RH  027%=      5-min Rain = 0
KSB1 191931Z 21010KT 11/M07 A3037 RMK A01 T01121072  RH  027%=      5-min Rain = 0
KSB1 191932Z 22009KT 11/M07 A3037 RMK A01 T01111073  RH  027%=      5-min Rain = 0
KSB1 191933Z 23007KT 11/M07 A3037 RMK A01 T01101073  RH  027%=      5-min Rain = 0
KSB1 191934Z 22005KT 11/M07 A3037 RMK A01 T01101072  RH  027%=      5-min Rain = 0
KSB1 191935Z 20003KT 11/M07 A3037 RMK A01 T01101073  RH  027%=      5-min Rain = 0
KSB1 191936Z 23005KT 11/M07 A3037 RMK A01 T01121070  RH  027%=      5-min Rain = 0
KSB1 191937Z 22008KT 12/M07 A3036 RMK A01 T01151071  RH  027%=      5-min Rain = 0
KSB1 191938Z 23006KT 11/M07 A3036 RMK A01 T01141074  RH  026%=      5-min Rain = 0
KSB1 191939Z 26009KT 12/M07 A3036 RMK A01 T01171071  RH  026%=      5-min Rain = 0
KSB1 191940Z 25007KT 11/M08 A3036 RMK A01 T01141075  RH  026%=      5-min Rain = 0
KSB1 191941Z 25009KT 11/M07 A3036 RMK A01 T01131074  RH  026%=      5-min Rain = 0
KSB1 191942Z 24007KT 11/M07 A3036 RMK A01 T01141073  RH  026%=      5-min Rain = 0
KSB1 191943Z 26009KT 12/M07 A3036 RMK A01 T01181072  RH  026%=      5-min Rain = 0
KSB1 191944Z 27008KT 12/M07 A3036 RMK A01 T01181074  RH  025%=      5-min Rain = 0
KSB1 191945Z 25009KT 12/M07 A3036 RMK A01 T01171074  RH  026%=      5-min Rain = 0
KSB1 191946Z 22009KT 12/M08 A3036 RMK A01 T01171075  RH  025%=      5-min Rain = 0
KSB1 191947Z 24010KT 12/M07 A3036 RMK A01 T01171074  RH  025%=      5-min Rain = 0
KSB1 191948Z 23010KT 12/M08 A3036 RMK A01 T01171076  RH  025%=      5-min Rain = 0
KSB1 191949Z 24009KT 12/M08 A3036 RMK A01 T01151077  RH  025%=      5-min Rain = 0
KSB1 191950Z 23008KT 11/M08 A3036 RMK A01 T01131077  RH  025%=      5-min Rain = 0
KSB1 191951Z 21008KT 11/M08 A3035 RMK A01 T01131078  RH  025%=      5-min Rain = 0
KSB1 191952Z 22007KT 11/M08 A3035 RMK A01 T01121080  RH  025%=      5-min Rain = 0
KSB1 191953Z 22004KT 11/M08 A3035 RMK A01 T01121080  RH  025%=      5-min Rain = 0
KSB1 191954Z 18002KT 11/M08 A3035 RMK A01 T01121080  RH  025%=      5-min Rain = 0
KSB1 191955Z 20004KT 11/M08 A3035 RMK A01 T01131081  RH  025%=      5-min Rain = 0
KSB1 191956Z 19002KT 11/M08 A3035 RMK A01 T01141081  RH  025%=      5-min Rain = 0
KSB1 191957Z 14002KT 11/M08 A3035 RMK A01 T01141081  RH  025%=      5-min Rain = 0
KSB1 191958Z 13002KT 12/M08 A3035 RMK A01 T01171078  RH  025%=      5-min Rain = 0
KSB1 191959Z 21004KT 12/M08 A3035 RMK A01 T01181077  RH  025%=      5-min Rain = 0
KSB1 192000Z 21004KT 12/M08 A3035 RMK A01 T01181077  RH  025%=      5-min Rain = 0
KSB1 192001Z 21003KT 12/M08 A3035 RMK A01 T01161078  RH  025%=      5-min Rain = 0
KSB1 192002Z 17002KT 12/M08 A3035 RMK A01 T01151078  RH  025%=      5-min Rain = 0
KSB1 192003Z 21001KT 12/M08 A3035 RMK A01 T01161078  RH  025%=      5-min Rain = 0
KSB1 192004Z 24005KT 12/M08 A3035 RMK A01 T01181076  RH  025%=      5-min Rain = 0
KSB1 192005Z 24009KT 12/M08 A3034 RMK A01 T01181076  RH  025%=      5-min Rain = 0
KSB1 192006Z 25009KT 12/M07 A3034 RMK A01 T01171074  RH  025%=      5-min Rain = 0
KSB1 192007Z 26008KT 12/M08 A3034 RMK A01 T01151076  RH  026%=      5-min Rain = 0
KSB1 192008Z 27007KT 12/M08 A3034 RMK A01 T01151075  RH  026%=      5-min Rain = 0
KSB1 192009Z 25006KT 12/M08 A3034 RMK A01 T01151075  RH  026%=      5-min Rain = 0
KSB1 192010Z 26003KT 12/M08 A3034 RMK A01 T01151076  RH  025%=      5-min Rain = 0
KSB1 192011Z 28002KT 12/M08 A3034 RMK A01 T01151077  RH  025%=      5-min Rain = 0
KSB1 192012Z 16003KT 12/M07 A3034 RMK A01 T01181073  RH  026%=      5-min Rain = 0
KSB1 192013Z 14003KT 12/M07 A3034 RMK A01 T01221073  RH  025%=      5-min Rain = 0
KSB1 192014Z 13002KT 12/M08 A3034 RMK A01 T01201078  RH  024%=      5-min Rain = 0
KSB1 192015Z 18002KT 12/M08 A3034 RMK A01 T01171077  RH  025%=      5-min Rain = 0
KSB1 192016Z 22005KT 12/M08 A3034 RMK A01 T01191076  RH  025%=      5-min Rain = 0
KSB1 192017Z 21004KT 12/M08 A3034 RMK A01 T01191076  RH  025%=      5-min Rain = 0
KSB1 192018Z 21005KT 12/M08 A3034 RMK A01 T01191075  RH  025%=      5-min Rain = 0
KSB1 192019Z 20008KT 12/M07 A3034 RMK A01 T01231073  RH  025%=      5-min Rain = 0
KSB1 192020Z 22007KT 12/M08 A3033 RMK A01 T01211078  RH  024%=      5-min Rain = 0
KSB1 192021Z 24007KT 12/M08 A3033 RMK A01 T01201077  RH  024%=      5-min Rain = 0
KSB1 192022Z 23009KT 12/M08 A3033 RMK A01 T01181077  RH  025%=      5-min Rain = 0
KSB1 192023Z 22009KT 12/M08 A3033 RMK A01 T01181078  RH  025%=      5-min Rain = 0
KSB1 192024Z 23008KT 12/M08 A3033 RMK A01 T01161079  RH  025%=      5-min Rain = 0
KSB1 192025Z 21005KT 11/M08 A3033 RMK A01 T01141079  RH  025%=      5-min Rain = 0
KSB1 192026Z 20006KT 12/M08 A3033 RMK A01 T01161077  RH  025%=      5-min Rain = 0
KSB1 192027Z 21007KT 12/M08 A3033 RMK A01 T01181077  RH  025%=      5-min Rain = 0
KSB1 192028Z 24004KT 12/M08 A3033 RMK A01 T01171079  RH  025%=      5-min Rain = 0
KSB1 192029Z 26004KT 12/M08 A3033 RMK A01 T01161079  RH  025%=      5-min Rain = 0
KSB1 192030Z 20005KT 12/M08 A3033 RMK A01 T01171079  RH  025%=      5-min Rain = 0
KSB1 192031Z 21004KT 12/M08 A3033 RMK A01 T01171080  RH  024%=      5-min Rain = 0
KSB1 192032Z 19004KT 12/M08 A3033 RMK A01 T01161079  RH  025%=      5-min Rain = 0
KSB1 192033Z 18004KT 12/M08 A3033 RMK A01 T01161079  RH  025%=      5-min Rain = 0
KSB1 192034Z 17005KT 12/M08 A3033 RMK A01 T01171080  RH  024%=      5-min Rain = 0
KSB1 192035Z 18005KT 12/M08 A3033 RMK A01 T01181080  RH  024%=      5-min Rain = 0
KSB1 192036Z 16004KT 12/M08 A3033 RMK A01 T01191080  RH  024%=      5-min Rain = 0
KSB1 192037Z 20003KT 12/M08 A3033 RMK A01 T01211078  RH  024%=      5-min Rain = 0
KSB1 192038Z 19005KT 12/M08 A3033 RMK A01 T01241077  RH  024%=      5-min Rain = 0
KSB1 192039Z 23007KT 12/M08 A3033 RMK A01 T01241079  RH  024%=      5-min Rain = 0
KSB1 192040Z 23009KT 12/M08 A3033 RMK A01 T01241078  RH  024%=      5-min Rain = 0
KSB1 192041Z 23006KT 12/M08 A3033 RMK A01 T01221080  RH  023%=      5-min Rain = 0
KSB1 192042Z 19004KT 12/M08 A3033 RMK A01 T01221079  RH  024%=      5-min Rain = 0
KSB1 192043Z 16003KT 12/M08 A3033 RMK A01 T01201082  RH  024%=      5-min Rain = 0
KSB1 192044Z 14005KT 12/M08 A3032 RMK A01 T01201081  RH  024%=      5-min Rain = 0
KSB1 192045Z 15007KT 12/M08 A3032 RMK A01 T01211080  RH  024%=      5-min Rain = 0
KSB1 192046Z 13005KT 12/M08 A3032 RMK A01 T01211081  RH  024%=      5-min Rain = 0
KSB1 192047Z 16003KT 12/M08 A3032 RMK A01 T01191081  RH  024%=      5-min Rain = 0
KSB1 192048Z 21003KT 12/M08 A3032 RMK A01 T01221078  RH  024%=      5-min Rain = 0
KSB1 192049Z 26003KT 13/M08 A3032 RMK A01 T01251079  RH  023%=      5-min Rain = 0
KSB1 192050Z 27004KT 13/M08 A3032 RMK A01 T01271082  RH  023%=      5-min Rain = 0
KSB1 192051Z 27003KT 13/M08 A3032 RMK A01 T01281082  RH  022%=      5-min Rain = 0
KSB1 192052Z 25004KT 13/M08 A3032 RMK A01 T01301082  RH  022%=      5-min Rain = 0
KSB1 192053Z 26001KT 13/M09 A3032 RMK A01 T01291085  RH  022%=      5-min Rain = 0
KSB1 192054Z 27001KT 13/M08 A3032 RMK A01 T01301084  RH  022%=      5-min Rain = 0
KSB1 192055Z 33005KT 13/M08 A3032 RMK A01 T01311083  RH  022%=      5-min Rain = 0
KSB1 192056Z 33005KT 13/M08 A3032 RMK A01 T01301082  RH  022%=      5-min Rain = 0
KSB1 192057Z 29005KT 13/M08 A3032 RMK A01 T01271084  RH  022%=      5-min Rain = 0
KSB1 192058Z 28008KT 13/M09 A3032 RMK A01 T01251087  RH  022%=      5-min Rain = 0
KSB1 192059Z 27009KT 13/M09 A3032 RMK A01 T01261088  RH  022%=      5-min Rain = 0
KSB1 192100Z 28007KT 13/M09 A3032 RMK A01 T01271088  RH  021%=      5-min Rain = 0
KSB1 192101Z 28005KT 13/M09 A3033 RMK A01 T01271090  RH  021%=      5-min Rain = 0
KSB1 192102Z 26005KT 13/M09 A3032 RMK A01 T01251089  RH  022%=      5-min Rain = 0
KSB1 192103Z 25004KT 12/M09 A3032 RMK A01 T01241091  RH  021%=      5-min Rain = 0
KSB1 192104Z 25002KT 12/M09 A3032 RMK A01 T01221093  RH  021%=      5-min Rain = 0
KSB1 192105Z 27006G11KT 12/M09 A3032 RMK A01 T01231089  RH  022%=      5-min Rain = 0
KSB1 192106Z 29007KT 13/M09 A3032 RMK A01 T01271087  RH  022%=      5-min Rain = 0
KSB1 192107Z 29007KT 13/M09 A3032 RMK A01 T01281089  RH  021%=      5-min Rain = 0
KSB1 192108Z 29007KT 13/M09 A3032 RMK A01 T01281089  RH  021%=      5-min Rain = 0
KSB1 192109Z 27005KT 13/M09 A3032 RMK A01 T01271091  RH  021%=      5-min Rain = 0
KSB1 192110Z 27006KT 13/M09 A3032 RMK A01 T01261091  RH  021%=      5-min Rain = 0
KSB1 192111Z 28007KT 13/M09 A3032 RMK A01 T01251093  RH  021%=      5-min Rain = 0
KSB1 192112Z 27006KT 12/M09 A3032 RMK A01 T01241092  RH  021%=      5-min Rain = 0
KSB1 192113Z 29008KT 13/M09 A3032 RMK A01 T01271090  RH  021%=      5-min Rain = 0
KSB1 192114Z 32006KT 13/M09 A3032 RMK A01 T01271093  RH  021%=      5-min Rain = 0
KSB1 192115Z 32004KT 13/M09 A3032 RMK A01 T01251092  RH  021%=      5-min Rain = 0
KSB1 192116Z 31006KT 13/M09 A3032 RMK A01 T01251092  RH  021%=      5-min Rain = 0
KSB1 192117Z 30006KT 12/M09 A3032 RMK A01 T01231092  RH  021%=      5-min Rain = 0
KSB1 192118Z 30008KT 13/M09 A3032 RMK A01 T01251090  RH  021%=      5-min Rain = 0
KSB1 192119Z 31005KT 13/M09 A3032 RMK A01 T01261091  RH  021%=      5-min Rain = 0
KSB1 192120Z 33005KT 13/M09 A3032 RMK A01 T01261091  RH  021%=      5-min Rain = 0
KSB1 192121Z 33006KT 13/M09 A3032 RMK A01 T01251090  RH  021%=      5-min Rain = 0
KSB1 192122Z 32008KT 13/M09 A3032 RMK A01 T01261091  RH  021%=      5-min Rain = 0
KSB1 192123Z 32008KT 13/M09 A3032 RMK A01 T01261090  RH  021%=      5-min Rain = 0
KSB1 192124Z 32006KT 13/M09 A3032 RMK A01 T01271089  RH  021%=      5-min Rain = 0
KSB1 192125Z 33006KT 13/M09 A3032 RMK A01 T01281088  RH  021%=      5-min Rain = 0
KSB1 192126Z 33006KT 13/M09 A3032 RMK A01 T01281089  RH  021%=      5-min Rain = 0
KSB1 192127Z 32005KT 13/M09 A3032 RMK A01 T01271090  RH  021%=      5-min Rain = 0
KSB1 192128Z 31007KT 13/M09 A3032 RMK A01 T01261091  RH  021%=      5-min Rain = 0
KSB1 192129Z 30006KT 13/M09 A3032 RMK A01 T01251094  RH  021%=      5-min Rain = 0
KSB1 192130Z 31004KT 12/M10 A3032 RMK A01 T01241096  RH  020%=      5-min Rain = 0
KSB1 192131Z 28002KT 12/M10 A3032 RMK A01 T01221098  RH  020%=      5-min Rain = 0
KSB1 192132Z 29004KT 12/M10 A3032 RMK A01 T01221097  RH  021%=      5-min Rain = 0
KSB1 192133Z 27007KT 13/M09 A3032 RMK A01 T01251093  RH  021%=      5-min Rain = 0
KSB1 192134Z 28007KT 13/M09 A3032 RMK A01 T01271093  RH  021%=      5-min Rain = 0
KSB1 192135Z 29009KT 13/M09 A3032 RMK A01 T01271094  RH  021%=      5-min Rain = 0
KSB1 192136Z 28006KT 13/M10 A3032 RMK A01 T01251095  RH  021%=      5-min Rain = 0
KSB1 192137Z 30007KT 13/M09 A3032 RMK A01 T01251093  RH  021%=      5-min Rain = 0
KSB1 192138Z 29009KT 13/M10 A3032 RMK A01 T01261095  RH  020%=      5-min Rain = 0
KSB1 192139Z 29007KT 13/M10 A3032 RMK A01 T01261097  RH  020%=      5-min Rain = 0
KSB1 192140Z 30005KT 13/M10 A3032 RMK A01 T01251098  RH  020%=      5-min Rain = 0
KSB1 192141Z 29006KT 12/M10 A3032 RMK A01 T01241095  RH  021%=      5-min Rain = 0
KSB1 192142Z 29005KT 13/M09 A3032 RMK A01 T01271091  RH  021%=      5-min Rain = 0
KSB1 192143Z 29003KT 13/M09 A3032 RMK A01 T01261094  RH  021%=      5-min Rain = 0
KSB1 192144Z 29004KT 12/M09 A3032 RMK A01 T01231093  RH  021%=      5-min Rain = 0
KSB1 192145Z 28006KT 12/M09 A3032 RMK A01 T01241092  RH  021%=      5-min Rain = 0
KSB1 192146Z 28007KT 13/M09 A3032 RMK A01 T01251094  RH  021%=      5-min Rain = 0
KSB1 192147Z 30005KT 12/M10 A3032 RMK A01 T01241095  RH  021%=      5-min Rain = 0
KSB1 192148Z 30006KT 13/M09 A3032 RMK A01 T01251092  RH  021%=      5-min Rain = 0
KSB1 192149Z 33004KT 13/M09 A3032 RMK A01 T01281092  RH  021%=      5-min Rain = 0
KSB1 192150Z 32003KT 13/M09 A3032 RMK A01 T01281092  RH  021%=      5-min Rain = 0
KSB1 192151Z 32003KT 13/M09 A3032 RMK A01 T01281091  RH  021%=      5-min Rain = 0
KSB1 192152Z 33006KT 13/M09 A3032 RMK A01 T01281091  RH  021%=      5-min Rain = 0
KSB1 192153Z 33006KT 13/M09 A3032 RMK A01 T01291091  RH  021%=      5-min Rain = 0
KSB1 192154Z 28006KT 13/M09 A3032 RMK A01 T01281090  RH  021%=      5-min Rain = 0
KSB1 192155Z 28009KT 13/M09 A3032 RMK A01 T01301088  RH  021%=      5-min Rain = 0
KSB1 192156Z 29008KT 13/M09 A3032 RMK A01 T01311090  RH  021%=      5-min Rain = 0
KSB1 192157Z 28006KT 13/M09 A3032 RMK A01 T01281092  RH  021%=      5-min Rain = 0
KSB1 192158Z 27005KT 13/M09 A3032 RMK A01 T01261091  RH  021%=      5-min Rain = 0
KSB1 192159Z 26004KT 13/M09 A3032 RMK A01 T01261092  RH  021%=      5-min Rain = 0
KSB1 192200Z 28002KT 13/M09 A3031 RMK A01 T01251092  RH  021%=      5-min Rain = 0
KSB1 192201Z 29002KT 13/M09 A3031 RMK A01 T01271091  RH  021%=      5-min Rain = 0
KSB1 192202Z 30006KT 13/M09 A3031 RMK A01 T01291089  RH  021%=      5-min Rain = 0
KSB1 192203Z 27005G11KT 13/M09 A3031 RMK A01 T01301089  RH  021%=      5-min Rain = 0
KSB1 192204Z 29007KT 13/M09 A3031 RMK A01 T01311091  RH  020%=      5-min Rain = 0
KSB1 192205Z 31005G10KT 13/M09 A3031 RMK A01 T01311092  RH  020%=      5-min Rain = 0
KSB1 192206Z 32006KT 13/M09 A3031 RMK A01 T01311093  RH  020%=      5-min Rain = 0
KSB1 192207Z 31007KT 13/M09 A3031 RMK A01 T01301093  RH  020%=      5-min Rain = 0
KSB1 192208Z 31007KT 13/M09 A3031 RMK A01 T01291094  RH  020%=      5-min Rain = 0
KSB1 192209Z 31006KT 13/M10 A3031 RMK A01 T01281096  RH  020%=      5-min Rain = 0
KSB1 192210Z 27006KT 13/M10 A3031 RMK A01 T01281097  RH  020%=      5-min Rain = 0
KSB1 192211Z 29003KT 13/M10 A3031 RMK A01 T01271098  RH  020%=      5-min Rain = 0
KSB1 192212Z 33005KT 13/M10 A3031 RMK A01 T01261097  RH  020%=      5-min Rain = 0
KSB1 192213Z 32004KT 13/M10 A3031 RMK A01 T01271096  RH  020%=      5-min Rain = 0
KSB1 192214Z 34005KT 13/M10 A3031 RMK A01 T01271097  RH  020%=      5-min Rain = 0
KSB1 192215Z 35004KT 13/M10 A3031 RMK A01 T01281097  RH  020%=      5-min Rain = 0
KSB1 192216Z 32007KT 13/M10 A3031 RMK A01 T01281096  RH  020%=      5-min Rain = 0
KSB1 192217Z 31006KT 13/M10 A3031 RMK A01 T01291095  RH  020%=      5-min Rain = 0
KSB1 192218Z 31008KT 13/M10 A3031 RMK A01 T01281097  RH  020%=      5-min Rain = 0
KSB1 192219Z 28007KT 13/M10 A3031 RMK A01 T01271095  RH  020%=      5-min Rain = 0
KSB1 192220Z 29005KT 13/M10 A3031 RMK A01 T01271095  RH  020%=      5-min Rain = 0
KSB1 192221Z 30004KT 13/M10 A3031 RMK A01 T01271095  RH  020%=      5-min Rain = 0
KSB1 192222Z 32005KT 13/M09 A3031 RMK A01 T01301091  RH  021%=      5-min Rain = 0
KSB1 192223Z 32008KT 13/M09 A3031 RMK A01 T01321092  RH  020%=      5-min Rain = 0
KSB1 192224Z 28009KT 13/M09 A3031 RMK A01 T01321094  RH  020%=      5-min Rain = 0
KSB1 192225Z 30007KT 13/M10 A3031 RMK A01 T01301097  RH  020%=      5-min Rain = 0
KSB1 192226Z 30008KT 13/M10 A3031 RMK A01 T01291098  RH  020%=      5-min Rain = 0
KSB1 192227Z 30007KT 13/M10 A3031 RMK A01 T01281098  RH  020%=      5-min Rain = 0
KSB1 192228Z 31007KT 13/M10 A3031 RMK A01 T01261098  RH  020%=      5-min Rain = 0
KSB1 192229Z 29008KT 13/M10 A3031 RMK A01 T01261098  RH  020%=      5-min Rain = 0
KSB1 192230Z 28008KT 13/M10 A3031 RMK A01 T01261098  RH  020%=      5-min Rain = 0
KSB1 192231Z 29008KT 13/M10 A3031 RMK A01 T01261098  RH  020%=      5-min Rain = 0
KSB1 192232Z 29006KT 13/M10 A3031 RMK A01 T01261096  RH  020%=      5-min Rain = 0
KSB1 192233Z 31007KT 13/M09 A3031 RMK A01 T01291094  RH  020%=      5-min Rain = 0
KSB1 192234Z 32007KT 13/M10 A3031 RMK A01 T01301096  RH  020%=      5-min Rain = 0
KSB1 192235Z 32005KT 13/M10 A3031 RMK A01 T01281097  RH  020%=      5-min Rain = 0
KSB1 192236Z 31007KT 13/M10 A3031 RMK A01 T01281095  RH  020%=      5-min Rain = 0
KSB1 192237Z 31006KT 13/M10 A3031 RMK A01 T01291096  RH  020%=      5-min Rain = 0
KSB1 192238Z 30007KT 13/M10 A3031 RMK A01 T01281097  RH  020%=      5-min Rain = 0
KSB1 192239Z 30006KT 13/M10 A3031 RMK A01 T01271099  RH  020%=      5-min Rain = 0
KSB1 192240Z 29005KT 13/M10 A3031 RMK A01 T01281102  RH  019%=      5-min Rain = 0
KSB1 192241Z 27004KT 13/M10 A3031 RMK A01 T01291102  RH  019%=      5-min Rain = 0
KSB1 192242Z 29008KT 13/M10 A3031 RMK A01 T01311101  RH  019%=      5-min Rain = 0
KSB1 192243Z 28007KT 13/M10 A3031 RMK A01 T01311100  RH  019%=      5-min Rain = 0
KSB1 192244Z 29008KT 13/M10 A3031 RMK A01 T01311099  RH  019%=      5-min Rain = 0
KSB1 192245Z 30007KT 13/M10 A3031 RMK A01 T01311101  RH  019%=      5-min Rain = 0
KSB1 192246Z 29007KT 13/M10 A3031 RMK A01 T01281102  RH  019%=      5-min Rain = 0
KSB1 192247Z 26007KT 13/M10 A3031 RMK A01 T01291101  RH  019%=      5-min Rain = 0
KSB1 192248Z 25006KT 13/M10 A3031 RMK A01 T01281101  RH  019%=      5-min Rain = 0
KSB1 192249Z 27008KT 13/M10 A3031 RMK A01 T01271101  RH  019%=      5-min Rain = 0
KSB1 192250Z 30007KT 13/M10 A3031 RMK A01 T01281101  RH  019%=      5-min Rain = 0
KSB1 192251Z 28007KT 13/M10 A3031 RMK A01 T01291102  RH  019%=      5-min Rain = 0
KSB1 192252Z 26006KT 13/M10 A3031 RMK A01 T01311102  RH  019%=      5-min Rain = 0
KSB1 192253Z 26005KT 13/M11 A3031 RMK A01 T01301106  RH  018%=      5-min Rain = 0
KSB1 192254Z 28008KT 13/M11 A3031 RMK A01 T01281105  RH  019%=      5-min Rain = 0
KSB1 192255Z 28007KT 13/M10 A3031 RMK A01 T01281104  RH  019%=      5-min Rain = 0
KSB1 192256Z 28005KT 13/M10 A3031 RMK A01 T01261104  RH  019%=      5-min Rain = 0
KSB1 192257Z 28009KT 13/M10 A3031 RMK A01 T01271102  RH  019%=      5-min Rain = 0
KSB1 192258Z 29008KT 13/M10 A3031 RMK A01 T01291101  RH  019%=      5-min Rain = 0
KSB1 192259Z 30008KT 13/M10 A3031 RMK A01 T01271101  RH  019%=      5-min Rain = 0
KSB1 192300Z 31006KT 13/M10 A3031 RMK A01 T01271101  RH  019%=      5-min Rain = 0
KSB1 192301Z 32007KT 13/M10 A3031 RMK A01 T01281099  RH  020%=      5-min Rain = 0
KSB1 192302Z 32006KT 13/M10 A3031 RMK A01 T01261098  RH  020%=      5-min Rain = 0
KSB1 192303Z 31009KT 13/M10 A3031 RMK A01 T01251097  RH  020%=      5-min Rain = 0
KSB1 192304Z 30009KT 13/M10 A3031 RMK A01 T01251096  RH  020%=      5-min Rain = 0
KSB1 192305Z 31007KT 13/M10 A3031 RMK A01 T01251096  RH  020%=      5-min Rain = 0
KSB1 192306Z 29007KT 13/M10 A3031 RMK A01 T01261095  RH  020%=      5-min Rain = 0
KSB1 192307Z 30006KT 13/M10 A3031 RMK A01 T01271096  RH  020%=      5-min Rain = 0
KSB1 192308Z 29004KT 13/M10 A3031 RMK A01 T01281096  RH  020%=      5-min Rain = 0
KSB1 192309Z 28007KT 13/M10 A3031 RMK A01 T01281095  RH  020%=      5-min Rain = 0
KSB1 192310Z 29007KT 13/M10 A3031 RMK A01 T01291097  RH  020%=      5-min Rain = 0
KSB1 192311Z 28007KT 13/M10 A3031 RMK A01 T01291098  RH  020%=      5-min Rain = 0
KSB1 192312Z 27009KT 13/M10 A3031 RMK A01 T01291099  RH  019%=      5-min Rain = 0
KSB1 192313Z 27009KT 13/M10 A3031 RMK A01 T01281103  RH  019%=      5-min Rain = 0
KSB1 192314Z 28010KT 13/M10 A3031 RMK A01 T01271103  RH  019%=      5-min Rain = 0
KSB1 192315Z 30008KT 13/M11 A3031 RMK A01 T01271105  RH  019%=      5-min Rain = 0
KSB1 192316Z 28009KT 13/M11 A3031 RMK A01 T01261105  RH  019%=      5-min Rain = 0
KSB1 192317Z 29009KT 13/M10 A3031 RMK A01 T01261103  RH  019%=      5-min Rain = 0
KSB1 192318Z 29007KT 13/M10 A3031 RMK A01 T01261104  RH  019%=      5-min Rain = 0
KSB1 192319Z 30007KT 13/M10 A3031 RMK A01 T01251104  RH  019%=      5-min Rain = 0
KSB1 192320Z 30006KT 13/M10 A3031 RMK A01 T01251103  RH  019%=      5-min Rain = 0
KSB1 192321Z 31007KT 13/M10 A3031 RMK A01 T01251102  RH  020%=      5-min Rain = 0
KSB1 192322Z 30006KT 13/M10 A3031 RMK A01 T01261102  RH  019%=      5-min Rain = 0
KSB1 192323Z 30006KT 13/M10 A3031 RMK A01 T01271103  RH  019%=      5-min Rain = 0
KSB1 192324Z 28007KT 13/M10 A3031 RMK A01 T01271104  RH  019%=      5-min Rain = 0
KSB1 192325Z 29007KT 13/M10 A3031 RMK A01 T01261104  RH  019%=      5-min Rain = 0
KSB1 192326Z 28005KT 13/M11 A3031 RMK A01 T01251105  RH  019%=      5-min Rain = 0
KSB1 192327Z 28006KT 13/M11 A3031 RMK A01 T01251106  RH  019%=      5-min Rain = 0
KSB1 192328Z 31007KT 13/M11 A3031 RMK A01 T01251107  RH  019%=      5-min Rain = 0
KSB1 192329Z 30007KT 12/M11 A3031 RMK A01 T01241110  RH  018%=      5-min Rain = 0
KSB1 192330Z 28008KT 12/M11 A3031 RMK A01 T01241109  RH  019%=      5-min Rain = 0
KSB1 192331Z 28008KT 12/M11 A3031 RMK A01 T01241108  RH  019%=      5-min Rain = 0
KSB1 192332Z 29007KT 12/M11 A3031 RMK A01 T01241109  RH  019%=      5-min Rain = 0
KSB1 192333Z 29006KT 12/M11 A303 RMK A01 T01241109  RH  019%=      5-min Rain = 0
KSB1 192334Z 29006KT 12/M11 A303 RMK A01 T01241107  RH  019%=      5-min Rain = 0
KSB1 192335Z 28008KT 12/M11 A303 RMK A01 T01231106  RH  019%=      5-min Rain = 0
KSB1 192336Z 28006KT 12/M11 A303 RMK A01 T01241108  RH  019%=      5-min Rain = 0
KSB1 192337Z 28007KT 12/M11 A303 RMK A01 T01241109  RH  019%=      5-min Rain = 0
KSB1 192338Z 28007KT 12/M11 A3031 RMK A01 T01241110  RH  018%=      5-min Rain = 0
KSB1 192339Z 27007KT 12/M11 A3031 RMK A01 T01231107  RH  019%=      5-min Rain = 0
KSB1 192340Z 28007KT 12/M11 A3031 RMK A01 T01231105  RH  019%=      5-min Rain = 0
KSB1 192341Z 30007KT 12/M11 A3031 RMK A01 T01231105  RH  019%=      5-min Rain = 0
KSB1 192342Z 31006KT 12/M11 A303 RMK A01 T01231105  RH  019%=      5-min Rain = 0
KSB1 192343Z 30005KT 12/M10 A3031 RMK A01 T01221104  RH  020%=      5-min Rain = 0
KSB1 192344Z 31004KT 12/M10 A303 RMK A01 T01221103  RH  020%=      5-min Rain = 0
KSB1 192345Z 30004KT 12/M10 A303 RMK A01 T01221101  RH  020%=      5-min Rain = 0
KSB1 192346Z 29005KT 12/M10 A303 RMK A01 T01221101  RH  020%=      5-min Rain = 0
KSB1 192347Z 28006KT 12/M10 A303 RMK A01 T01211102  RH  020%=      5-min Rain = 0
KSB1 192348Z 30005KT 12/M10 A303 RMK A01 T01211101  RH  020%=      5-min Rain = 0
KSB1 192349Z 28006KT 12/M10 A303 RMK A01 T01221101  RH  020%=      5-min Rain = 0
KSB1 192350Z 29007KT 12/M10 A303 RMK A01 T01221102  RH  020%=      5-min Rain = 0
KSB1 192351Z 29006KT 12/M10 A303 RMK A01 T01221103  RH  020%=      5-min Rain = 0
KSB1 192352Z 28006KT 12/M10 A303 RMK A01 T01221103  RH  020%=      5-min Rain = 0
KSB1 192353Z 28006KT 12/M10 A303 RMK A01 T01211104  RH  020%=      5-min Rain = 0
KSB1 192354Z 29006KT 12/M11 A303 RMK A01 T01211105  RH  019%=      5-min Rain = 0
KSB1 192355Z 28004KT 12/M11 A303 RMK A01 T01221105  RH  019%=      5-min Rain = 0
KSB1 192356Z 29005KT 12/M11 A303 RMK A01 T01221105  RH  019%=      5-min Rain = 0
KSB1 192357Z 29006KT 12/M11 A303 RMK A01 T01211105  RH  019%=      5-min Rain = 0
KSB1 192358Z 29005KT 12/M11 A3031 RMK A01 T01211106  RH  019%=      5-min Rain = 0
KSB1 192359Z 29005KT 12/M11 A3031 RMK A01 T01201106  RH  019%=      5-min Rain = 0
KSB1 200000Z 29005KT 12/M11 A3031 RMK A01 T01191106  RH  020%=      5-min Rain = 0
KSB1 200001Z 29004KT 12/M11 A3031 RMK A01 T01201105  RH  020%=      5-min Rain = 0
KSB1 200002Z 29005KT 12/M10 A3031 RMK A01 T01191104  RH  020%=      5-min Rain = 0
KSB1 200003Z 28005KT 12/M10 A3031 RMK A01 T01201103  RH  020%=      5-min Rain = 0
KSB1 200004Z 32004KT 12/M10 A3031 RMK A01 T01191103  RH  020%=      5-min Rain = 0
KSB1 200005Z 31003KT 12/M10 A3031 RMK A01 T01181104  RH  020%=      5-min Rain = 0
KSB1 200006Z 32004KT 12/M11 A3031 RMK A01 T01161105  RH  020%=      5-min Rain = 0
KSB1 200007Z 30004KT 12/M10 A3031 RMK A01 T01151103  RH  021%=      5-min Rain = 0
KSB1 200008Z 30004KT 11/M10 A3031 RMK A01 T01141103  RH  021%=      5-min Rain = 0
KSB1 200009Z 31005KT 11/M10 A3031 RMK A01 T01131102  RH  021%=      5-min Rain = 0
KSB1 200010Z 30005KT 11/M10 A3031 RMK A01 T01131103  RH  021%=      5-min Rain = 0
KSB1 200011Z 30005KT 11/M10 A3031 RMK A01 T01121104  RH  021%=      5-min Rain = 0
KSB1 200012Z 31005KT 11/M10 A3031 RMK A01 T01121104  RH  021%=      5-min Rain = 0
KSB1 200013Z 31006KT 11/M10 A3031 RMK A01 T01111104  RH  021%=      5-min Rain = 0
KSB1 200014Z 31007KT 11/M10 A3031 RMK A01 T01101103  RH  021%=      5-min Rain = 0
KSB1 200015Z 31007KT 11/M10 A3031 RMK A01 T01091104  RH  021%=      5-min Rain = 0
KSB1 200016Z 31008KT 11/M10 A3031 RMK A01 T01081103  RH  022%=      5-min Rain = 0
KSB1 200017Z 31007KT 11/M10 A3031 RMK A01 T01081103  RH  022%=      5-min Rain = 0
KSB1 200018Z 31006KT 11/M10 A3031 RMK A01 T01071103  RH  022%=      5-min Rain = 0
KSB1 200019Z 31006KT 11/M10 A3031 RMK A01 T01071103  RH  022%=      5-min Rain = 0
KSB1 200020Z 31006KT 11/M10 A3031 RMK A01 T01071102  RH  022%=      5-min Rain = 0
KSB1 200021Z 31007KT 11/M10 A3031 RMK A01 T01061103  RH  022%=      5-min Rain = 0
KSB1 200022Z 30006KT 11/M10 A3031 RMK A01 T01061104  RH  022%=      5-min Rain = 0
KSB1 200023Z 31006KT 11/M10 A3031 RMK A01 T01061103  RH  022%=      5-min Rain = 0
KSB1 200024Z 31005KT 11/M10 A3031 RMK A01 T01051102  RH  022%=      5-min Rain = 0
KSB1 200025Z 30005KT 11/M10 A3031 RMK A01 T01051102  RH  022%=      5-min Rain = 0
KSB1 200026Z 31006KT 11/M10 A3031 RMK A01 T01051102  RH  022%=      5-min Rain = 0
KSB1 200027Z 31006KT 10/M10 A3031 RMK A01 T01041102  RH  022%=      5-min Rain = 0
KSB1 200028Z 31006KT 10/M10 A3031 RMK A01 T01031102  RH  023%=      5-min Rain = 0
KSB1 200029Z 31006KT 10/M10 A3031 RMK A01 T01031101  RH  023%=      5-min Rain = 0
KSB1 200030Z 31006KT 10/M10 A3031 RMK A01 T01031102  RH  023%=      5-min Rain = 0
KSB1 200031Z 31006KT 10/M10 A3031 RMK A01 T01031101  RH  023%=      5-min Rain = 0
KSB1 200032Z 30007KT 10/M10 A3031 RMK A01 T01031101  RH  023%=      5-min Rain = 0
KSB1 200033Z 31006KT 10/M10 A3031 RMK A01 T01021101  RH  023%=      5-min Rain = 0
KSB1 200034Z 31006KT 10/M10 A3031 RMK A01 T01021101  RH  023%=      5-min Rain = 0
KSB1 200035Z 30006KT 10/M10 A3031 RMK A01 T01021101  RH  023%=      5-min Rain = 0
KSB1 200036Z 31005KT 10/M10 A3031 RMK A01 T01011102  RH  023%=      5-min Rain = 0
KSB1 200037Z 31006KT 10/M10 A3031 RMK A01 T01011102  RH  023%=      5-min Rain = 0
KSB1 200038Z 31006KT 10/M10 A3031 RMK A01 T01011102  RH  023%=      5-min Rain = 0
KSB1 200039Z 31007KT 10/M10 A3031 RMK A01 T01001102  RH  023%=      5-min Rain = 0
KSB1 200040Z 31006KT 10/M10 A3031 RMK A01 T01001102  RH  023%=      5-min Rain = 0
KSB1 200041Z 31006KT 10/M10 A303 RMK A01 T01001102  RH  023%=      5-min Rain = 0
KSB1 200042Z 30006KT 10/M10 A303 RMK A01 T00991102  RH  023%=      5-min Rain = 0
KSB1 200043Z 31006KT 10/M10 A303 RMK A01 T00991102  RH  023%=      5-min Rain = 0
KSB1 200044Z 31006KT 10/M10 A303 RMK A01 T00991102  RH  023%=      5-min Rain = 0
KSB1 200045Z 31006KT 10/M10 A303 RMK A01 T00991102  RH  023%=      5-min Rain = 0
KSB1 200046Z 30006KT 10/M10 A303 RMK A01 T00991102  RH  023%=      5-min Rain = 0
KSB1 200047Z 31007KT 10/M10 A303 RMK A01 T00991102  RH  023%=      5-min Rain = 0
KSB1 200048Z 31007KT 10/M10 A303 RMK A01 T00991102  RH  023%=      5-min Rain = 0
KSB1 200049Z 31006KT 10/M10 A303 RMK A01 T00991102  RH  023%=      5-min Rain = 0
KSB1 200050Z 31007KT 10/M10 A303 RMK A01 T00991102  RH  023%=      5-min Rain = 0
KSB1 200051Z 31007KT 10/M10 A303 RMK A01 T00991102  RH  023%=      5-min Rain = 0
KSB1 200052Z 31007KT 10/M10 A303 RMK A01 T00991102  RH  023%=      5-min Rain = 0
KSB1 200053Z 31006KT 10/M10 A303 RMK A01 T00991102  RH  023%=      5-min Rain = 0
KSB1 200054Z 30007KT 10/M10 A303 RMK A01 T00991102  RH  023%=      5-min Rain = 0
KSB1 200055Z 30007KT 10/M10 A303 RMK A01 T00981101  RH  023%=      5-min Rain = 0
KSB1 200056Z 30006KT 10/M10 A303 RMK A01 T00981101  RH  023%=      5-min Rain = 0
KSB1 200057Z 31007KT 10/M10 A303 RMK A01 T00981102  RH  023%=      5-min Rain = 0
KSB1 200058Z 31007KT 10/M10 A303 RMK A01 T00981101  RH  023%=      5-min Rain = 0
KSB1 200059Z 31007KT 10/M10 A303 RMK A01 T00981101  RH  023%=      5-min Rain = 0
KSB1 200100Z 31007KT 10/M10 A3031 RMK A01 T00981101  RH  023%=      5-min Rain = 0
KSB1 200101Z 31007KT 10/M10 A3031 RMK A01 T00971102  RH  023%=      5-min Rain = 0
KSB1 200102Z 31008KT 10/M10 A3031 RMK A01 T00971101  RH  024%=      5-min Rain = 0
KSB1 200103Z 31008KT 10/M10 A3031 RMK A01 T00971101  RH  024%=      5-min Rain = 0
KSB1 200104Z 31008KT 10/M10 A3031 RMK A01 T00971102  RH  023%=      5-min Rain = 0
KSB1 200105Z 31008KT 10/M10 A3031 RMK A01 T00971102  RH  023%=      5-min Rain = 0
KSB1 200106Z 31008KT 10/M10 A3031 RMK A01 T00971102  RH  023%=      5-min Rain = 0
KSB1 200107Z 30008KT 10/M10 A3031 RMK A01 T00971102  RH  024%=      5-min Rain = 0
KSB1 200108Z 30007KT 10/M10 A3031 RMK A01 T00961102  RH  024%=      5-min Rain = 0
KSB1 200109Z 31007KT 10/M10 A3031 RMK A01 T00971102  RH  024%=      5-min Rain = 0
KSB1 200110Z 31008KT 10/M10 A3031 RMK A01 T00971102  RH  023%=      5-min Rain = 0
KSB1 200111Z 31007KT 10/M10 A3031 RMK A01 T00971102  RH  023%=      5-min Rain = 0
KSB1 200112Z 31007KT 10/M10 A3031 RMK A01 T00971103  RH  023%=      5-min Rain = 0
KSB1 200113Z 31007KT 10/M10 A3031 RMK A01 T00971102  RH  023%=      5-min Rain = 0
KSB1 200114Z 31007KT 10/M10 A3031 RMK A01 T00971102  RH  023%=      5-min Rain = 0
KSB1 200115Z 31007KT 10/M10 A3031 RMK A01 T00971103  RH  023%=      5-min Rain = 0
KSB1 200116Z 31007KT 10/M10 A3031 RMK A01 T00961102  RH  024%=      5-min Rain = 0
KSB1 200117Z 31007KT 10/M10 A3032 RMK A01 T00951102  RH  024%=      5-min Rain = 0
KSB1 200118Z 31007KT 09/M10 A3032 RMK A01 T00941102  RH  024%=      5-min Rain = 0
KSB1 200119Z 31006KT 09/M10 A3032 RMK A01 T00941102  RH  024%=      5-min Rain = 0
KSB1 200120Z 31006KT 09/M10 A3032 RMK A01 T00931102  RH  024%=      5-min Rain = 0
KSB1 200121Z 31007KT 09/M10 A3032 RMK A01 T00931102  RH  024%=      5-min Rain = 0
KSB1 200122Z 31007KT 09/M10 A3032 RMK A01 T00931102  RH  024%=      5-min Rain = 0
KSB1 200123Z 31007KT 09/M10 A3032 RMK A01 T00931102  RH  024%=      5-min Rain = 0
KSB1 200124Z 31007KT 09/M10 A3032 RMK A01 T00921102  RH  024%=      5-min Rain = 0
KSB1 200125Z 31007KT 09/M10 A3032 RMK A01 T00921102  RH  024%=      5-min Rain = 0
KSB1 200126Z 31007KT 09/M10 A3032 RMK A01 T00921102  RH  024%=      5-min Rain = 0
KSB1 200127Z 31007KT 09/M10 A3032 RMK A01 T00921102  RH  024%=      5-min Rain = 0
KSB1 200128Z 31006KT 09/M10 A3032 RMK A01 T00921102  RH  024%=      5-min Rain = 0
KSB1 200129Z 32006KT 09/M10 A3032 RMK A01 T00921102  RH  024%=      5-min Rain = 0
KSB1 200130Z 32005KT 09/M10 A3032 RMK A01 T00911102  RH  024%=      5-min Rain = 0
KSB1 200131Z 33004KT 09/M10 A3032 RMK A01 T00901102  RH  025%=      5-min Rain = 0
KSB1 200132Z 33004KT 09/M10 A3032 RMK A01 T00891102  RH  025%=      5-min Rain = 0
KSB1 200133Z 32004KT 09/M10 A3032 RMK A01 T00871102  RH  025%=      5-min Rain = 0
KSB1 200134Z 32004KT 09/M10 A3032 RMK A01 T00871101  RH  025%=      5-min Rain = 0
KSB1 200135Z 32004KT 09/M10 A3032 RMK A01 T00861101  RH  026%=      5-min Rain = 0
KSB1 200136Z 31005KT 09/M10 A3032 RMK A01 T00851100  RH  026%=      5-min Rain = 0
KSB1 200137Z 31005KT 09/M10 A3032 RMK A01 T00851100  RH  026%=      5-min Rain = 0
KSB1 200138Z 31006KT 08/M10 A3031 RMK A01 T00841101  RH  026%=      5-min Rain = 0
KSB1 200139Z 31006KT 09/M10 A3031 RMK A01 T00851101  RH  026%=      5-min Rain = 0
KSB1 200140Z 31006KT 09/M10 A3031 RMK A01 T00861100  RH  026%=      5-min Rain = 0
KSB1 200141Z 30007KT 09/M10 A3031 RMK A01 T00861100  RH  026%=      5-min Rain = 0
KSB1 200142Z 30007KT 09/M10 A3031 RMK A01 T00881100  RH  025%=      5-min Rain = 0
KSB1 200143Z 30008KT 09/M10 A3031 RMK A01 T00891100  RH  025%=      5-min Rain = 0
KSB1 200144Z 30007KT 09/M10 A3031 RMK A01 T00901100  RH  025%=      5-min Rain = 0
KSB1 200145Z 30007KT 09/M10 A3031 RMK A01 T00911100  RH  025%=      5-min Rain = 0
KSB1 200146Z 30007KT 09/M10 A3031 RMK A01 T00921100  RH  025%=      5-min Rain = 0
KSB1 200147Z 30008KT 09/M10 A3031 RMK A01 T00921101  RH  024%=      5-min Rain = 0
KSB1 200148Z 30008KT 09/M10 A3031 RMK A01 T00931101  RH  024%=      5-min Rain = 0
KSB1 200149Z 30008KT 09/M10 A3031 RMK A01 T00941101  RH  024%=      5-min Rain = 0
KSB1 200150Z 30006KT 09/M10 A3031 RMK A01 T00941101  RH  024%=      5-min Rain = 0
KSB1 200151Z 30007KT 09/M10 A3031 RMK A01 T00941101  RH  024%=      5-min Rain = 0
KSB1 200152Z 30007KT 09/M10 A3031 RMK A01 T00941100  RH  024%=      5-min Rain = 0
KSB1 200153Z 30007KT 09/M10 A3032 RMK A01 T00941100  RH  024%=      5-min Rain = 0
KSB1 200154Z 30007KT 09/M10 A3032 RMK A01 T00941100  RH  024%=      5-min Rain = 0
KSB1 200155Z 30007KT 09/M10 A3032 RMK A01 T00931100  RH  024%=      5-min Rain = 0
KSB1 200156Z 30007KT 09/M10 A3032 RMK A01 T00931100  RH  024%=      5-min Rain = 0
KSB1 200157Z 30008KT 09/M10 A3032 RMK A01 T00921100  RH  025%=      5-min Rain = 0
KSB1 200158Z 30008KT 09/M10 A3032 RMK A01 T00921099  RH  025%=      5-min Rain = 0
KSB1 200159Z 30008KT 09/M10 A3032 RMK A01 T00921099  RH  025%=      5-min Rain = 0
KSB1 200200Z 30008KT 09/M10 A3032 RMK A01 T00921099  RH  025%=      5-min Rain = 0
KSB1 200201Z 30009KT 09/M10 A3032 RMK A01 T00921099  RH  025%=      5-min Rain = 0
KSB1 200202Z 30009KT 09/M10 A3032 RMK A01 T00931098  RH  025%=      5-min Rain = 0
KSB1 200203Z 30007KT 09/M10 A3032 RMK A01 T00931098  RH  025%=      5-min Rain = 0
KSB1 200204Z 30007KT 09/M10 A3032 RMK A01 T00931098  RH  025%=      5-min Rain = 0
KSB1 200205Z 30008KT 09/M10 A3032 RMK A01 T00921098  RH  025%=      5-min Rain = 0
KSB1 200206Z 30007KT 09/M10 A3032 RMK A01 T00931098  RH  025%=      5-min Rain = 0
KSB1 200207Z 31008KT 09/M10 A3032 RMK A01 T00931098  RH  025%=      5-min Rain = 0
KSB1 200208Z 30008KT 09/M10 A3032 RMK A01 T00931098  RH  025%=      5-min Rain = 0
KSB1 200209Z 30007KT 09/M10 A3032 RMK A01 T00931098  RH  025%=      5-min Rain = 0
KSB1 200210Z 30007KT 09/M10 A3032 RMK A01 T00931098  RH  025%=      5-min Rain = 0
KSB1 200211Z 30007KT 09/M10 A3032 RMK A01 T00921098  RH  025%=      5-min Rain = 0
KSB1 200212Z 30007KT 09/M10 A3032 RMK A01 T00911098  RH  025%=      5-min Rain = 0
KSB1 200213Z 30006KT 09/M10 A3032 RMK A01 T00911099  RH  025%=      5-min Rain = 0
KSB1 200214Z 29007KT 09/M10 A3032 RMK A01 T00911099  RH  025%=      5-min Rain = 0
KSB1 200215Z 29006KT 09/M10 A3031 RMK A01 T00911099  RH  025%=      5-min Rain = 0
KSB1 200216Z 29005KT 09/M10 A3031 RMK A01 T00911099  RH  025%=      5-min Rain = 0
KSB1 200217Z 29006KT 09/M10 A3031 RMK A01 T00901099  RH  025%=      5-min Rain = 0
KSB1 200218Z 29006KT 09/M10 A3031 RMK A01 T00901099  RH  025%=      5-min Rain = 0
KSB1 200219Z 28006KT 09/M10 A3031 RMK A01 T00891098  RH  025%=      5-min Rain = 0
KSB1 200220Z 29006KT 09/M10 A3031 RMK A01 T00891098  RH  026%=      5-min Rain = 0
KSB1 200221Z 29006KT 09/M10 A3031 RMK A01 T00891098  RH  026%=      5-min Rain = 0
KSB1 200222Z 29006KT 09/M10 A3031 RMK A01 T00891097  RH  026%=      5-min Rain = 0
KSB1 200223Z 28006KT 09/M10 A3031 RMK A01 T00891098  RH  026%=      5-min Rain = 0
KSB1 200224Z 29006KT 09/M10 A3031 RMK A01 T00891097  RH  026%=      5-min Rain = 0
KSB1 200225Z 29007KT 09/M10 A3031 RMK A01 T00891097  RH  026%=      5-min Rain = 0
KSB1 200226Z 29006KT 09/M10 A3031 RMK A01 T00891097  RH  026%=      5-min Rain = 0
KSB1 200227Z 28006KT 09/M10 A3031 RMK A01 T00881097  RH  026%=      5-min Rain = 0
KSB1 200228Z 28007KT 09/M10 A3031 RMK A01 T00871098  RH  026%=      5-min Rain = 0
KSB1 200229Z 28007KT 09/M10 A3031 RMK A01 T00871097  RH  026%=      5-min Rain = 0
KSB1 200230Z 29007KT 09/M10 A3031 RMK A01 T00871097  RH  026%=      5-min Rain = 0
KSB1 200231Z 29007KT 09/M10 A3031 RMK A01 T00891097  RH  026%=      5-min Rain = 0
KSB1 200232Z 29007KT 09/M10 A3031 RMK A01 T00911097  RH  026%=      5-min Rain = 0
KSB1 200233Z 29007KT 09/M10 A3031 RMK A01 T00911097  RH  025%=      5-min Rain = 0
KSB1 200234Z 29006KT 09/M10 A3032 RMK A01 T00911097  RH  025%=      5-min Rain = 0
KSB1 200235Z 29006KT 09/M10 A3032 RMK A01 T00911097  RH  026%=      5-min Rain = 0
KSB1 200236Z 29008KT 09/M10 A3032 RMK A01 T00901097  RH  026%=      5-min Rain = 0
KSB1 200237Z 30008KT 09/M10 A3032 RMK A01 T00901097  RH  026%=      5-min Rain = 0
KSB1 200238Z 29008KT 09/M10 A3032 RMK A01 T00901096  RH  026%=      5-min Rain = 0
KSB1 200239Z 30009KT 09/M10 A3032 RMK A01 T00901096  RH  026%=      5-min Rain = 0
KSB1 200240Z 30008KT 09/M10 A3032 RMK A01 T00901096  RH  026%=      5-min Rain = 0
KSB1 200241Z 30008KT 09/M10 A3032 RMK A01 T00901095  RH  026%=      5-min Rain = 0
KSB1 200242Z 30007KT 09/M10 A3032 RMK A01 T00901095  RH  026%=      5-min Rain = 0
KSB1 200243Z 31008KT 09/M09 A3033 RMK A01 T00901094  RH  026%=      5-min Rain = 0
KSB1 200244Z 31008KT 09/M09 A3033 RMK A01 T00891094  RH  026%=      5-min Rain = 0
KSB1 200245Z 31008KT 09/M10 A3033 RMK A01 T00881095  RH  026%=      5-min Rain = 0
KSB1 200246Z 31008KT 09/M10 A3034 RMK A01 T00881095  RH  026%=      5-min Rain = 0
KSB1 200247Z 31009KT 09/M10 A3034 RMK A01 T00891095  RH  026%=      5-min Rain = 0
KSB1 200248Z 31009KT 09/M10 A3034 RMK A01 T00881095  RH  026%=      5-min Rain = 0
KSB1 200249Z 31008KT 09/M10 A3034 RMK A01 T00891095  RH  026%=      5-min Rain = 0
KSB1 200250Z 32006KT 09/M10 A3034 RMK A01 T00891095  RH  026%=      5-min Rain = 0
KSB1 200251Z 32005KT 09/M10 A3034 RMK A01 T00881095  RH  026%=      5-min Rain = 0
KSB1 200252Z 32006KT 08/M10 A3034 RMK A01 T00831095  RH  027%=      5-min Rain = 0
KSB1 200253Z 32006KT 08/M10 A3034 RMK A01 T00811095  RH  028%=      5-min Rain = 0
KSB1 200254Z 32006KT 08/M10 A3034 RMK A01 T00811095  RH  028%=      5-min Rain = 0
KSB1 200255Z 31006KT 08/M10 A3034 RMK A01 T00811095  RH  028%=      5-min Rain = 0
KSB1 200256Z 31006KT 08/M10 A3034 RMK A01 T00811095  RH  028%=      5-min Rain = 0
KSB1 200257Z 31006KT 08/M10 A3034 RMK A01 T00821095  RH  027%=      5-min Rain = 0
KSB1 200258Z 31007KT 08/M10 A3034 RMK A01 T00831095  RH  027%=      5-min Rain = 0
KSB1 200259Z 31006KT 09/M10 A3034 RMK A01 T00851095  RH  027%=      5-min Rain = 0
KSB1 200300Z 31007KT 09/M10 A3034 RMK A01 T00861096  RH  027%=      5-min Rain = 0
KSB1 200301Z 31006KT 09/M10 A3034 RMK A01 T00861096  RH  027%=      5-min Rain = 0
KSB1 200302Z 32004KT 09/M10 A3034 RMK A01 T00871096  RH  026%=      5-min Rain = 0
KSB1 200303Z 32003KT 08/M10 A3034 RMK A01 T00811098  RH  027%=      5-min Rain = 0
KSB1 200304Z 32003KT 07/M10 A3034 RMK A01 T00741099  RH  028%=      5-min Rain = 0
KSB1 200305Z 33003KT 07/M10 A3034 RMK A01 T00671100  RH  029%=      5-min Rain = 0
KSB1 200306Z 33003KT 06/M10 A3034 RMK A01 T00631099  RH  030%=      5-min Rain = 0
KSB1 200307Z 33003KT 06/M10 A3034 RMK A01 T00611098  RH  031%=      5-min Rain = 0
KSB1 200308Z 33003KT 06/M10 A3034 RMK A01 T00601097  RH  031%=      5-min Rain = 0
KSB1 200309Z 32003KT 06/M10 A3034 RMK A01 T00611097  RH  031%=      5-min Rain = 0
KSB1 200310Z 32003KT 06/M10 A3034 RMK A01 T00611096  RH  031%=      5-min Rain = 0
KSB1 200311Z 31004KT 06/M10 A3034 RMK A01 T00631095  RH  031%=      5-min Rain = 0
KSB1 200312Z 30004KT 06/M10 A3034 RMK A01 T00641096  RH  031%=      5-min Rain = 0
KSB1 200313Z 30004KT 06/M10 A3034 RMK A01 T00571104  RH  030%=      5-min Rain = 0
KSB1 200314Z 26003KT 05/M11 A3034 RMK A01 T00471107  RH  032%=      5-min Rain = 0
KSB1 200315Z 23002KT 04/M11 A3034 RMK A01 T00401107  RH  033%=      5-min Rain = 0
KSB1 200316Z 18002KT 04/M11 A3034 RMK A01 T00371105  RH  035%=      5-min Rain = 0
KSB1 200317Z 18003KT 04/M10 A3034 RMK A01 T00351103  RH  036%=      5-min Rain = 0
KSB1 200318Z 20002KT 04/M10 A3034 RMK A01 T00351102  RH  036%=      5-min Rain = 0
KSB1 200319Z 20002KT 04/M10 A3034 RMK A01 T00371100  RH  036%=      5-min Rain = 0
KSB1 200320Z 24001KT 04/M10 A3034 RMK A01 T00391099  RH  036%=      5-min Rain = 0
KSB1 200321Z 23001KT 04/M10 A3034 RMK A01 T00441096  RH  035%=      5-min Rain = 0
KSB1 200322Z 20002KT 05/M10 A3034 RMK A01 T00471097  RH  034%=      5-min Rain = 0
KSB1 200323Z 22003KT 05/M10 A3033 RMK A01 T00451101  RH  034%=      5-min Rain = 0
KSB1 200324Z 21002KT 04/M10 A3033 RMK A01 T00411103  RH  034%=      5-min Rain = 0
KSB1 200325Z 21002KT 04/M10 A3033 RMK A01 T00361104  RH  035%=      5-min Rain = 0
KSB1 200326Z 21003KT 03/M11 A3033 RMK A01 T00321105  RH  036%=      5-min Rain = 0
KSB1 200327Z 21004KT 03/M10 A3033 RMK A01 T00291104  RH  037%=      5-min Rain = 0
KSB1 200328Z 22003KT 03/M10 A3033 RMK A01 T00271104  RH  038%=      5-min Rain = 0
KSB1 200329Z 22004KT 03/M10 A3034 RMK A01 T00251103  RH  038%=      5-min Rain = 0
KSB1 200330Z 22003KT 02/M10 A3034 RMK A01 T00241102  RH  039%=      5-min Rain = 0
KSB1 200331Z 22004KT 02/M10 A3034 RMK A01 T00241101  RH  039%=      5-min Rain = 0
KSB1 200332Z 22005KT 02/M10 A3034 RMK A01 T00241101  RH  039%=      5-min Rain = 0
KSB1 200333Z 22005KT 03/M10 A3034 RMK A01 T00251100  RH  039%=      5-min Rain = 0
KSB1 200334Z 22005KT 03/M10 A3033 RMK A01 T00271099  RH  039%=      5-min Rain = 0
KSB1 200335Z 22005KT 03/M10 A3033 RMK A01 T00281098  RH  039%=      5-min Rain = 0
KSB1 200336Z 22004KT 03/M10 A3033 RMK A01 T00291099  RH  038%=      5-min Rain = 0
KSB1 200337Z 22004KT 03/M10 A3034 RMK A01 T00291099  RH  038%=      5-min Rain = 0
KSB1 200338Z 22004KT 03/M10 A3034 RMK A01 T00301099  RH  038%=      5-min Rain = 0
KSB1 200339Z 22004KT 03/M10 A3034 RMK A01 T00301099  RH  038%=      5-min Rain = 0
KSB1 200340Z 22005KT 03/M10 A3034 RMK A01 T00311099  RH  038%=      5-min Rain = 0
KSB1 200341Z 22005KT 03/M10 A3034 RMK A01 T00321099  RH  038%=      5-min Rain = 0
KSB1 200342Z 22005KT 03/M10 A3034 RMK A01 T00311099  RH  038%=      5-min Rain = 0
KSB1 200343Z 22005KT 03/M10 A3034 RMK A01 T00321098  RH  038%=      5-min Rain = 0
KSB1 200344Z 22005KT 04/M10 A3034 RMK A01 T00361096  RH  037%=      5-min Rain = 0
KSB1 200345Z 22005KT 04/M10 A3033 RMK A01 T00401096  RH  036%=      5-min Rain = 0
KSB1 200346Z 23005KT 04/M10 A3033 RMK A01 T00411097  RH  036%=      5-min Rain = 0
KSB1 200347Z 23005KT 04/M10 A3033 RMK A01 T00431096  RH  036%=      5-min Rain = 0
KSB1 200348Z 24005KT 05/M10 A3033 RMK A01 T00461096  RH  035%=      5-min Rain = 0
KSB1 200349Z 24004KT 05/M10 A3033 RMK A01 T00481095  RH  035%=      5-min Rain = 0
KSB1 200350Z 25004KT 05/M10 A3033 RMK A01 T00501095  RH  034%=      5-min Rain = 0
KSB1 200351Z 27004KT 05/M09 A3033 RMK A01 T00531094  RH  034%=      5-min Rain = 0
KSB1 200352Z 27004KT 06/M09 A3033 RMK A01 T00581093  RH  033%=      5-min Rain = 0
KSB1 200353Z 27004KT 06/M09 A3033 RMK A01 T00641093  RH  032%=      5-min Rain = 0
KSB1 200354Z 27004KT 07/M09 A3033 RMK A01 T00691092  RH  031%=      5-min Rain = 0
KSB1 200355Z 27004KT 07/M09 A3033 RMK A01 T00711094  RH  030%=      5-min Rain = 0
KSB1 200356Z 27004KT 07/M09 A3033 RMK A01 T00721094  RH  030%=      5-min Rain = 0
KSB1 200357Z 26004KT 07/M10 A3033 RMK A01 T00721095  RH  029%=      5-min Rain = 0
KSB1 200358Z 26004KT 07/M10 A3033 RMK A01 T00711095  RH  030%=      5-min Rain = 0
KSB1 200359Z 26004KT 07/M09 A3033 RMK A01 T00721094  RH  030%=      5-min Rain = 0
KSB1 200400Z 25004KT 07/M10 A3033 RMK A01 T00701095  RH  030%=      5-min Rain = 0
KSB1 200401Z 25004KT 07/M10 A3033 RMK A01 T00691095  RH  030%=      5-min Rain = 0
KSB1 200402Z 25005KT 07/M10 A3033 RMK A01 T00671095  RH  030%=      5-min Rain = 0
KSB1 200403Z 25005KT 07/M10 A3033 RMK A01 T00661095  RH  031%=      5-min Rain = 0
KSB1 200404Z 25005KT 06/M10 A3033 RMK A01 T00641095  RH  031%=      5-min Rain = 0
KSB1 200405Z 26005KT 06/M09 A3033 RMK A01 T00641094  RH  031%=      5-min Rain = 0
KSB1 200406Z 26005KT 06/M10 A3033 RMK A01 T00641095  RH  031%=      5-min Rain = 0
KSB1 200407Z 26005KT 06/M10 A3033 RMK A01 T00631095  RH  031%=      5-min Rain = 0
KSB1 200408Z 27005KT 06/M10 A3033 RMK A01 T00641095  RH  031%=      5-min Rain = 0
KSB1 200409Z 27004KT 07/M09 A3033 RMK A01 T00661094  RH  031%=      5-min Rain = 0
KSB1 200410Z 28004KT 07/M09 A3033 RMK A01 T00681093  RH  031%=      5-min Rain = 0
KSB1 200411Z 28004KT 07/M09 A3033 RMK A01 T00691094  RH  030%=      5-min Rain = 0
KSB1 200412Z 28004KT 07/M09 A3033 RMK A01 T00701093  RH  030%=      5-min Rain = 0
KSB1 200413Z 28004KT 07/M09 A3034 RMK A01 T00721093  RH  030%=      5-min Rain = 0
KSB1 200414Z 28005KT 07/M09 A3033 RMK A01 T00731093  RH  030%=      5-min Rain = 0
KSB1 200415Z 28005KT 07/M09 A3033 RMK A01 T00741093  RH  029%=      5-min Rain = 0
KSB1 200416Z 28005KT 07/M09 A3033 RMK A01 T00741093  RH  029%=      5-min Rain = 0
KSB1 200417Z 28004KT 08/M09 A3033 RMK A01 T00751093  RH  029%=      5-min Rain = 0
KSB1 200418Z 27004KT 08/M09 A3033 RMK A01 T00751093  RH  029%=      5-min Rain = 0
KSB1 200419Z 27004KT 08/M09 A3033 RMK A01 T00751094  RH  029%=      5-min Rain = 0
KSB1 200420Z 26003KT 08/M09 A3033 RMK A01 T00751094  RH  029%=      5-min Rain = 0
KSB1 200421Z 25003KT 08/M09 A3033 RMK A01 T00761094  RH  029%=      5-min Rain = 0
KSB1 200422Z 24003KT 08/M09 A3033 RMK A01 T00751094  RH  029%=      5-min Rain = 0
KSB1 200423Z 15002KT 07/M10 A3033 RMK A01 T00711097  RH  029%=      5-min Rain = 0
KSB1 200424Z 11004KT 06/M10 A3033 RMK A01 T00601104  RH  030%=      5-min Rain = 0
KSB1 200425Z 11005KT 05/M11 A3033 RMK A01 T00491108  RH  031%=      5-min Rain = 0
KSB1 200426Z 12004KT 04/M11 A3033 RMK A01 T00401108  RH  033%=      5-min Rain = 0
KSB1 200427Z 12004KT 04/M11 A3033 RMK A01 T00351106  RH  035%=      5-min Rain = 0
KSB1 200428Z 13003KT 03/M10 A3033 RMK A01 T00321104  RH  036%=      5-min Rain = 0
KSB1 200429Z 13004KT 03/M10 A3033 RMK A01 T00311103  RH  037%=      5-min Rain = 0
KSB1 200430Z 14004KT 03/M10 A3033 RMK A01 T00311102  RH  037%=      5-min Rain = 0
KSB1 200431Z 15003KT 03/M10 A3033 RMK A01 T00301102  RH  037%=      5-min Rain = 0
KSB1 200432Z 17002KT 03/M10 A3033 RMK A01 T00291102  RH  037%=      5-min Rain = 0
KSB1 200433Z 19002KT 03/M10 A3033 RMK A01 T00301101  RH  038%=      5-min Rain = 0
KSB1 200434Z 19002KT 03/M10 A3033 RMK A01 T00301100  RH  038%=      5-min Rain = 0
KSB1 200435Z 20002KT 03/M10 A3033 RMK A01 T00321100  RH  037%=      5-min Rain = 0
KSB1 200436Z 20002KT 03/M10 A3033 RMK A01 T00341099  RH  037%=      5-min Rain = 0
KSB1 200437Z 20002KT 04/M10 A3033 RMK A01 T00361099  RH  037%=      5-min Rain = 0
KSB1 200438Z 20002KT 04/M10 A3033 RMK A01 T00371099  RH  036%=      5-min Rain = 0
KSB1 200439Z 20002KT 04/M10 A3033 RMK A01 T00401097  RH  036%=      5-min Rain = 0
KSB1 200440Z 21001KT 04/M10 A3033 RMK A01 T00431095  RH  036%=      5-min Rain = 0
KSB1 200441Z 20001KT 05/M09 A3033 RMK A01 T00461094  RH  035%=      5-min Rain = 0
KSB1 200442Z 20001KT 05/M09 A3033 RMK A01 T00501094  RH  035%=      5-min Rain = 0
KSB1 200443Z 20001KT 05/M10 A3033 RMK A01 T00511095  RH  034%=      5-min Rain = 0
KSB1 200444Z 21001KT 05/M10 A3033 RMK A01 T00521096  RH  033%=      5-min Rain = 0
KSB1 200445Z 21001KT 05/M10 A3033 RMK A01 T00521097  RH  033%=      5-min Rain = 0
KSB1 200446Z 21001KT 05/M10 A3033 RMK A01 T00521097  RH  033%=      5-min Rain = 0
KSB1 200447Z 21000KT 05/M10 A3033 RMK A01 T00521097  RH  033%=      5-min Rain = 0
KSB1 200448Z 00000KT 05/M10 A3033 RMK A01 T00511098  RH  033%=      5-min Rain = 0
KSB1 200449Z 00000KT 05/M10 A3033 RMK A01 T00511098  RH  033%=      5-min Rain = 0
KSB1 200450Z 00000KT 05/M10 A3033 RMK A01 T00511098  RH  033%=      5-min Rain = 0
KSB1 200451Z 00000KT 05/M10 A3033 RMK A01 T00531097  RH  033%=      5-min Rain = 0
KSB1 200452Z 00000KT 06/M10 A3033 RMK A01 T00551096  RH  033%=      5-min Rain = 0
KSB1 200453Z 00000KT 06/M10 A3033 RMK A01 T00601095  RH  032%=      5-min Rain = 0
KSB1 200454Z 22001KT 07/M10 A3033 RMK A01 T00651095  RH  031%=      5-min Rain = 0
KSB1 200455Z 22001KT 07/M10 A3033 RMK A01 T00681096  RH  030%=      5-min Rain = 0
KSB1 200456Z 22001KT 07/M10 A3033 RMK A01 T00701096  RH  029%=      5-min Rain = 0
KSB1 200457Z 22001KT 07/M10 A3033 RMK A01 T00721096  RH  029%=      5-min Rain = 0
KSB1 200458Z 22001KT 07/M10 A3033 RMK A01 T00721096  RH  029%=      5-min Rain = 0
KSB1 200459Z 22001KT 07/M10 A3033 RMK A01 T00731097  RH  029%=      5-min Rain = 0
KSB1 200500Z 23001KT 07/M10 A3033 RMK A01 T00741097  RH  029%=      5-min Rain = 0
KSB1 200501Z 23002KT 08/M10 A3033 RMK A01 T00751097  RH  028%=      5-min Rain = 0
KSB1 200502Z 24001KT 08/M10 A3033 RMK A01 T00751097  RH  028%=      5-min Rain = 0
KSB1 200503Z 22001KT 08/M10 A3033 RMK A01 T00761097  RH  028%=      5-min Rain = 0
KSB1 200504Z 23001KT 08/M10 A3033 RMK A01 T00761097  RH  028%=      5-min Rain = 0
KSB1 200505Z 23001KT 08/M10 A3033 RMK A01 T00761097  RH  028%=      5-min Rain = 0
KSB1 200506Z 23001KT 08/M10 A3033 RMK A01 T00761098  RH  028%=      5-min Rain = 0
KSB1 200507Z 22001KT 08/M10 A3033 RMK A01 T00761099  RH  028%=      5-min Rain = 0
KSB1 200508Z 21001KT 08/M10 A3033 RMK A01 T00751100  RH  028%=      5-min Rain = 0
KSB1 200509Z 21001KT 08/M10 A3033 RMK A01 T00751100  RH  028%=      5-min Rain = 0
KSB1 200510Z 22001KT 08/M10 A3033 RMK A01 T00751100  RH  028%=      5-min Rain = 0
KSB1 200511Z 21001KT 07/M10 A3033 RMK A01 T00741100  RH  028%=      5-min Rain = 0
KSB1 200512Z 21001KT 07/M10 A3033 RMK A01 T00741099  RH  028%=      5-min Rain = 0
KSB1 200513Z 23001KT 07/M10 A3033 RMK A01 T00741099  RH  028%=      5-min Rain = 0
KSB1 200514Z 22001KT 07/M10 A3033 RMK A01 T00741100  RH  028%=      5-min Rain = 0
KSB1 200515Z 24001KT 07/M10 A3033 RMK A01 T00731099  RH  028%=      5-min Rain = 0
KSB1 200516Z 26001KT 07/M10 A3033 RMK A01 T00731098  RH  028%=      5-min Rain = 0
KSB1 200517Z 28002KT 07/M10 A3033 RMK A01 T00731098  RH  029%=      5-min Rain = 0
KSB1 200518Z 27002KT 07/M10 A3033 RMK A01 T00721099  RH  028%=      5-min Rain = 0
KSB1 200519Z 26001KT 07/M10 A3033 RMK A01 T00711100  RH  028%=      5-min Rain = 0
KSB1 200520Z 27001KT 07/M10 A3033 RMK A01 T00711100  RH  028%=      5-min Rain = 0
KSB1 200521Z 27002KT 07/M10 A3033 RMK A01 T00711101  RH  028%=      5-min Rain = 0
KSB1 200522Z 27002KT 07/M10 A3033 RMK A01 T00701102  RH  028%=      5-min Rain = 0
KSB1 200523Z 27001KT 07/M10 A3033 RMK A01 T00691101  RH  029%=      5-min Rain = 0
KSB1 200524Z 28002KT 07/M10 A3034 RMK A01 T00681101  RH  029%=      5-min Rain = 0
KSB1 200525Z 29002KT 07/M10 A3034 RMK A01 T00671100  RH  029%=      5-min Rain = 0
KSB1 200526Z 28002KT 07/M10 A3034 RMK A01 T00681099  RH  029%=      5-min Rain = 0
KSB1 200527Z 28002KT 07/M10 A3034 RMK A01 T00691099  RH  029%=      5-min Rain = 0
KSB1 200528Z 27002KT 07/M10 A3034 RMK A01 T00701098  RH  029%=      5-min Rain = 0
KSB1 200529Z 28002KT 07/M10 A3034 RMK A01 T00711097  RH  029%=      5-min Rain = 0
KSB1 200530Z 28003KT 07/M10 A3034 RMK A01 T00721097  RH  029%=      5-min Rain = 0
KSB1 200531Z 28003KT 07/M10 A3034 RMK A01 T00731097  RH  029%=      5-min Rain = 0
KSB1 200532Z 29002KT 07/M10 A3034 RMK A01 T00721096  RH  029%=      5-min Rain = 0
KSB1 200533Z 29003KT 07/M10 A3034 RMK A01 T00711096  RH  029%=      5-min Rain = 0
KSB1 200534Z 29003KT 07/M10 A3034 RMK A01 T00711096  RH  029%=      5-min Rain = 0
KSB1 200535Z 29003KT 07/M10 A3034 RMK A01 T00721096  RH  029%=      5-min Rain = 0
KSB1 200536Z 29003KT 07/M10 A3034 RMK A01 T00731096  RH  029%=      5-min Rain = 0
KSB1 200537Z 28003KT 07/M10 A3034 RMK A01 T00721096  RH  029%=      5-min Rain = 0
KSB1 200538Z 29003KT 07/M10 A3034 RMK A01 T00721096  RH  029%=      5-min Rain = 0
KSB1 200539Z 29003KT 07/M10 A3034 RMK A01 T00721096  RH  029%=      5-min Rain = 0
KSB1 200540Z 30003KT 07/M10 A3034 RMK A01 T00721096  RH  029%=      5-min Rain = 0
KSB1 200541Z 29003KT 07/M10 A3034 RMK A01 T00721096  RH  029%=      5-min Rain = 0
KSB1 200542Z 28003KT 07/M10 A3034 RMK A01 T00711096  RH  029%=      5-min Rain = 0
KSB1 200543Z 28002KT 07/M10 A3033 RMK A01 T00701096  RH  029%=      5-min Rain = 0
KSB1 200544Z 29003KT 07/M10 A3033 RMK A01 T00691097  RH  029%=      5-min Rain = 0
KSB1 200545Z 29003KT 07/M10 A3033 RMK A01 T00711096  RH  029%=      5-min Rain = 0
KSB1 200546Z 29002KT 07/M10 A3033 RMK A01 T00741095  RH  029%=      5-min Rain = 0
KSB1 200547Z 28002KT 08/M10 A3034 RMK A01 T00761096  RH  028%=      5-min Rain = 0
KSB1 200548Z 27002KT 08/M10 A3034 RMK A01 T00781096  RH  028%=      5-min Rain = 0
KSB1 200549Z 26002KT 08/M10 A3034 RMK A01 T00801097  RH  027%=      5-min Rain = 0
KSB1 200550Z 25002KT 08/M10 A3034 RMK A01 T00821097  RH  027%=      5-min Rain = 0
KSB1 200551Z 24002KT 08/M10 A3034 RMK A01 T00831098  RH  027%=      5-min Rain = 0
KSB1 200552Z 24002KT 08/M10 A3034 RMK A01 T00831098  RH  027%=      5-min Rain = 0
KSB1 200553Z 23002KT 08/M10 A3034 RMK A01 T00841099  RH  026%=      5-min Rain = 0
KSB1 200554Z 23002KT 08/M10 A3034 RMK A01 T00841099  RH  026%=      5-min Rain = 0
KSB1 200555Z 23002KT 08/M10 A3034 RMK A01 T00841099  RH  026%=      5-min Rain = 0
KSB1 200556Z 22002KT 08/M10 A3034 RMK A01 T00841099  RH  026%=      5-min Rain = 0
KSB1 200557Z 22002KT 08/M10 A3034 RMK A01 T00831099  RH  026%=      5-min Rain = 0
KSB1 200558Z 22001KT 08/M10 A3034 RMK A01 T00831099  RH  026%=      5-min Rain = 0
KSB1 200559Z 21001KT 08/M10 A3034 RMK A01 T00821099  RH  027%=      5-min Rain = 0

Page generated in 0.0379 seconds.